Wetterdaten: aktuell Sonntag, 17.12.2017 03:02
Datum Zeit Temp. A. Feuchte A. Luftdruck Regen Wind Richtung Richtung Sonnenschein UV-Index Solar Windchill Windben
17.12.2017 03:02 0.7 C 96 % 1021.8 mbar 0.00 mm 0.5 km/h SO 146 0 min 0.0 UV-I 0 W/m 0.7 C 4.8 km/h
17.12.2017 03:00 0.7 C 96 % 1021.8 mbar 0.00 mm 0.0 km/h S 185 0 min 0.0 UV-I 0 W/m 0.7 C 0.0 km/h
17.12.2017 02:58 0.7 C 96 % 1021.8 mbar 0.00 mm 0.0 km/h S-SW 195 0 min 0.0 UV-I 0 W/m 0.7 C 0.0 km/h
17.12.2017 02:56 0.6 C 96 % 1021.8 mbar 0.00 mm 0.0 km/h S-SW 195 0 min 0.0 UV-I 0 W/m 0.6 C 0.0 km/h
17.12.2017 02:54 0.6 C 96 % 1021.8 mbar 0.00 mm 0.0 km/h S-SW 195 0 min 0.0 UV-I 0 W/m 0.6 C 0.0 km/h
17.12.2017 02:52 0.7 C 96 % 1021.8 mbar 0.00 mm 0.0 km/h S-SW 195 0 min 0.0 UV-I 0 W/m 0.7 C 0.0 km/h
17.12.2017 02:50 0.7 C 96 % 1021.8 mbar 0.00 mm 0.0 km/h S-SW 195 0 min 0.0 UV-I 0 W/m 0.7 C 0.0 km/h
17.12.2017 02:48 0.7 C 96 % 1021.7 mbar 0.00 mm 0.0 km/h S-SW 195 0 min 0.0 UV-I 0 W/m 0.7 C 0.0 km/h
17.12.2017 02:46 0.7 C 96 % 1021.7 mbar 0.00 mm 0.0 km/h S-SW 195 0 min 0.0 UV-I 0 W/m 0.7 C 0.0 km/h
17.12.2017 02:44 0.7 C 96 % 1021.7 mbar 0.00 mm 0.0 km/h S-SW 199 0 min 0.0 UV-I 0 W/m 0.7 C 0.0 km/h
17.12.2017 02:42 0.7 C 96 % 1021.7 mbar 0.00 mm 0.0 km/h S-SW 199 0 min 0.0 UV-I 0 W/m 0.7 C 0.0 km/h
17.12.2017 02:40 0.7 C 96 % 1021.6 mbar 0.00 mm 0.0 km/h S-SW 199 0 min 0.0 UV-I 0 W/m 0.7 C 0.0 km/h
17.12.2017 02:38 0.7 C 96 % 1021.6 mbar 0.00 mm 0.0 km/h S-SW 199 0 min 0.0 UV-I 0 W/m 0.7 C 0.0 km/h
17.12.2017 02:36 0.7 C 96 % 1021.6 mbar 0.00 mm 0.0 km/h S-SW 199 0 min 0.0 UV-I 0 W/m 0.7 C 0.0 km/h
17.12.2017 02:34 0.7 C 96 % 1021.6 mbar 0.00 mm 0.0 km/h S-SW 199 0 min 0.0 UV-I 0 W/m 0.7 C 0.0 km/h
17.12.2017 02:32 0.7 C 96 % 1021.5 mbar 0.00 mm 0.0 km/h S-SW 199 0 min 0.0 UV-I 0 W/m 0.7 C 0.0 km/h
17.12.2017 02:30 0.7 C 96 % 1021.5 mbar 0.00 mm 0.1 km/h S-SW 199 0 min 0.0 UV-I 0 W/m 0.7 C 1.6 km/h
17.12.2017 02:28 0.7 C 96 % 1021.5 mbar 0.00 mm 1.6 km/h S-SW 199 0 min 0.0 UV-I 0 W/m 0.7 C 3.2 km/h
17.12.2017 02:26 0.7 C 96 % 1021.5 mbar 0.00 mm 0.0 km/h S-SW 199 0 min 0.0 UV-I 0 W/m 0.7 C 0.0 km/h
17.12.2017 02:24 0.7 C 96 % 1021.5 mbar 0.00 mm 0.0 km/h S 185 0 min 0.0 UV-I 0 W/m 0.7 C 0.0 km/h
17.12.2017 02:22 0.7 C 96 % 1021.4 mbar 0.00 mm 0.0 km/h S 185 0 min 0.0 UV-I 0 W/m 0.7 C 0.0 km/h
17.12.2017 02:20 0.7 C 96 % 1021.4 mbar 0.00 mm 0.0 km/h S 185 0 min 0.0 UV-I 0 W/m 0.7 C 0.0 km/h
17.12.2017 02:18 0.7 C 96 % 1021.4 mbar 0.00 mm 0.0 km/h S 185 0 min 0.0 UV-I 0 W/m 0.7 C 0.0 km/h
17.12.2017 02:16 0.7 C 96 % 1021.3 mbar 0.00 mm 0.0 km/h S 185 0 min 0.0 UV-I 0 W/m 0.7 C 0.0 km/h
17.12.2017 02:14 0.7 C 96 % 1021.3 mbar 0.00 mm 0.0 km/h S 185 0 min 0.0 UV-I 0 W/m 0.7 C 0.0 km/h
17.12.2017 02:12 0.7 C 96 % 1021.3 mbar 0.00 mm 0.1 km/h S 185 0 min 0.0 UV-I 0 W/m 0.7 C 1.6 km/h
17.12.2017 02:10 0.7 C 96 % 1021.3 mbar 0.00 mm 0.0 km/h S 185 0 min 0.0 UV-I 0 W/m 0.7 C 0.0 km/h
17.12.2017 02:08 0.7 C 96 % 1021.2 mbar 0.00 mm 0.1 km/h S 185 0 min 0.0 UV-I 0 W/m 0.7 C 1.6 km/h
17.12.2017 02:06 0.7 C 96 % 1021.3 mbar 0.00 mm 0.0 km/h S 185 0 min 0.0 UV-I 0 W/m 0.7 C 0.0 km/h
17.12.2017 02:04 0.7 C 96 % 1021.2 mbar 0.00 mm 0.0 km/h S 185 0 min 0.0 UV-I 0 W/m 0.7 C 0.0 km/h
17.12.2017 02:02 0.7 C 96 % 1021.3 mbar 0.00 mm 0.0 km/h S 185 0 min 0.0 UV-I 0 W/m 0.7 C 0.0 km/h
17.12.2017 02:00 0.7 C 96 % 1021.3 mbar 0.00 mm 0.1 km/h S 185 0 min 0.0 UV-I 0 W/m 0.7 C 1.6 km/h
17.12.2017 01:58 0.7 C 96 % 1021.3 mbar 0.00 mm 0.0 km/h S 185 0 min 0.0 UV-I 0 W/m 0.7 C 0.0 km/h
17.12.2017 01:56 0.7 C 96 % 1021.2 mbar 0.00 mm 0.0 km/h S 185 0 min 0.0 UV-I 0 W/m 0.7 C 0.0 km/h
17.12.2017 01:54 0.7 C 96 % 1021.2 mbar 0.00 mm 0.0 km/h S 185 0 min 0.0 UV-I 0 W/m 0.7 C 0.0 km/h
17.12.2017 01:52 0.7 C 96 % 1021.1 mbar 0.00 mm 0.4 km/h S 185 0 min 0.0 UV-I 0 W/m 0.7 C 1.6 km/h
17.12.2017 01:50 0.7 C 96 % 1021.0 mbar 0.00 mm 0.5 km/h S 185 0 min 0.0 UV-I 0 W/m 0.7 C 3.2 km/h
17.12.2017 01:48 0.7 C 96 % 1021.1 mbar 0.00 mm 0.0 km/h W-SW 254 0 min 0.0 UV-I 0 W/m 0.7 C 0.0 km/h
17.12.2017 01:46 0.7 C 96 % 1021.1 mbar 0.00 mm 0.0 km/h W-SW 254 0 min 0.0 UV-I 0 W/m 0.7 C 0.0 km/h
17.12.2017 01:44 0.7 C 96 % 1021.2 mbar 0.00 mm 0.0 km/h W-SW 254 0 min 0.0 UV-I 0 W/m 0.7 C 0.0 km/h
17.12.2017 01:42 0.7 C 96 % 1021.1 mbar 0.00 mm 0.0 km/h W-SW 254 0 min 0.0 UV-I 0 W/m 0.7 C 0.0 km/h
17.12.2017 01:40 0.7 C 96 % 1021.1 mbar 0.00 mm 0.0 km/h W-SW 254 0 min 0.0 UV-I 0 W/m 0.7 C 0.0 km/h
17.12.2017 01:38 0.7 C 96 % 1021.1 mbar 0.00 mm 0.0 km/h W-SW 254 0 min 0.0 UV-I 0 W/m 0.7 C 0.0 km/h
17.12.2017 01:36 0.7 C 96 % 1021.1 mbar 0.00 mm 0.0 km/h W-SW 254 0 min 0.0 UV-I 0 W/m 0.7 C 0.0 km/h
17.12.2017 01:34 0.7 C 96 % 1021.1 mbar 0.00 mm 0.0 km/h W-SW 254 0 min 0.0 UV-I 0 W/m 0.7 C 0.0 km/h
17.12.2017 01:32 0.7 C 96 % 1021.2 mbar 0.00 mm 0.0 km/h W-SW 254 0 min 0.0 UV-I 0 W/m 0.7 C 0.0 km/h
17.12.2017 01:30 0.7 C 96 % 1021.1 mbar 0.00 mm 0.1 km/h W-SW 254 0 min 0.0 UV-I 0 W/m 0.7 C 1.6 km/h
17.12.2017 01:28 0.7 C 96 % 1021.1 mbar 0.00 mm 0.5 km/h W-SW 254 0 min 0.0 UV-I 0 W/m 0.7 C 3.2 km/h
17.12.2017 01:26 0.7 C 96 % 1021.1 mbar 0.00 mm 2.8 km/h W-SW 254 0 min 0.0 UV-I 0 W/m 0.7 C 3.2 km/h
17.12.2017 01:24 0.7 C 96 % 1021.0 mbar 0.00 mm 1.9 km/h S 185 0 min 0.0 UV-I 0 W/m 0.7 C 3.2 km/h
17.12.2017 01:22 0.7 C 96 % 1021.0 mbar 0.00 mm 2.3 km/h S 185 0 min 0.0 UV-I 0 W/m 0.7 C 3.2 km/h
17.12.2017 01:20 0.7 C 96 % 1020.9 mbar 0.00 mm 2.7 km/h S 185 0 min 0.0 UV-I 0 W/m 0.7 C 4.8 km/h
17.12.2017 01:18 0.7 C 96 % 1021.0 mbar 0.00 mm 0.0 km/h W 279 0 min 0.0 UV-I 0 W/m 0.7 C 1.6 km/h
17.12.2017 01:16 0.7 C 96 % 1020.9 mbar 0.00 mm 0.0 km/h W-NW 284 0 min 0.0 UV-I 0 W/m 0.7 C 0.0 km/h
17.12.2017 01:14 0.7 C 96 % 1020.9 mbar 0.00 mm 0.0 km/h W-NW 284 0 min 0.0 UV-I 0 W/m 0.7 C 0.0 km/h
17.12.2017 01:12 0.7 C 96 % 1020.9 mbar 0.00 mm 0.0 km/h W-NW 285 0 min 0.0 UV-I 0 W/m 0.7 C 0.0 km/h
17.12.2017 01:10 0.7 C 96 % 1020.9 mbar 0.00 mm 0.0 km/h W-NW 285 0 min 0.0 UV-I 0 W/m 0.7 C 0.0 km/h
17.12.2017 01:08 0.7 C 96 % 1020.9 mbar 0.00 mm 0.0 km/h W-NW 285 0 min 0.0 UV-I 0 W/m 0.7 C 0.0 km/h
17.12.2017 01:06 0.7 C 96 % 1020.9 mbar 0.00 mm 0.0 km/h W-NW 284 0 min 0.0 UV-I 0 W/m 0.7 C 0.0 km/h
17.12.2017 01:04 0.7 C 96 % 1020.9 mbar 0.00 mm 0.0 km/h W-NW 284 0 min 0.0 UV-I 0 W/m 0.7 C 0.0 km/h
17.12.2017 01:02 0.7 C 96 % 1020.9 mbar 0.00 mm 0.0 km/h W-NW 284 0 min 0.0 UV-I 0 W/m 0.7 C 0.0 km/h
17.12.2017 01:00 0.7 C 96 % 1020.9 mbar 0.00 mm 0.0 km/h W-NW 284 0 min 0.0 UV-I 0 W/m 0.7 C 0.0 km/h
17.12.2017 00:58 0.7 C 96 % 1020.9 mbar 0.00 mm 0.0 km/h W-NW 284 0 min 0.0 UV-I 0 W/m 0.7 C 0.0 km/h
17.12.2017 00:56 0.7 C 96 % 1020.9 mbar 0.00 mm 0.0 km/h W-NW 284 0 min 0.0 UV-I 0 W/m 0.7 C 0.0 km/h
17.12.2017 00:54 0.7 C 96 % 1020.8 mbar 0.00 mm 0.0 km/h W-NW 284 0 min 0.0 UV-I 0 W/m 0.7 C 0.0 km/h
17.12.2017 00:52 0.7 C 96 % 1020.8 mbar 0.00 mm 0.0 km/h W-NW 284 0 min 0.0 UV-I 0 W/m 0.7 C 0.0 km/h
17.12.2017 00:50 0.8 C 96 % 1020.8 mbar 0.00 mm 0.0 km/h W-NW 284 0 min 0.0 UV-I 0 W/m 0.8 C 0.0 km/h
17.12.2017 00:48 0.7 C 96 % 1020.8 mbar 0.00 mm 0.0 km/h W-NW 285 0 min 0.0 UV-I 0 W/m 0.7 C 0.0 km/h
17.12.2017 00:46 0.7 C 96 % 1020.8 mbar 0.00 mm 0.0 km/h W-NW 284 0 min 0.0 UV-I 0 W/m 0.7 C 0.0 km/h
17.12.2017 00:44 0.7 C 96 % 1020.8 mbar 0.00 mm 0.0 km/h W-NW 284 0 min 0.0 UV-I 0 W/m 0.7 C 0.0 km/h
17.12.2017 00:42 0.7 C 96 % 1020.8 mbar 0.00 mm 0.0 km/h W-NW 284 0 min 0.0 UV-I 0 W/m 0.7 C 0.0 km/h
17.12.2017 00:40 0.7 C 96 % 1020.9 mbar 0.00 mm 1.7 km/h W-NW 284 0 min 0.0 UV-I 0 W/m 0.7 C 3.2 km/h
17.12.2017 00:38 0.7 C 96 % 1020.9 mbar 0.00 mm 1.2 km/h W-NW 284 0 min 0.0 UV-I 0 W/m 0.7 C 3.2 km/h
17.12.2017 00:36 0.7 C 96 % 1020.9 mbar 0.00 mm 0.8 km/h W-NW 284 0 min 0.0 UV-I 0 W/m 0.7 C 1.6 km/h
17.12.2017 00:34 0.7 C 96 % 1020.9 mbar 0.00 mm 0.2 km/h W-NW 285 0 min 0.0 UV-I 0 W/m 0.7 C 1.6 km/h
17.12.2017 00:32 0.7 C 96 % 1020.9 mbar 0.00 mm 0.1 km/h W-NW 285 0 min 0.0 UV-I 0 W/m 0.7 C 1.6 km/h
17.12.2017 00:30 0.7 C 96 % 1020.9 mbar 0.00 mm 0.0 km/h W-NW 284 0 min 0.0 UV-I 0 W/m 0.7 C 0.0 km/h
17.12.2017 00:28 0.7 C 96 % 1020.9 mbar 0.00 mm 0.1 km/h W-NW 284 0 min 0.0 UV-I 0 W/m 0.7 C 1.6 km/h
17.12.2017 00:26 0.7 C 96 % 1020.8 mbar 0.00 mm 1.3 km/h W-NW 285 0 min 0.0 UV-I 0 W/m 0.7 C 1.6 km/h
17.12.2017 00:24 0.7 C 96 % 1020.9 mbar 0.00 mm 1.5 km/h W-NW 284 0 min 0.0 UV-I 0 W/m 0.7 C 3.2 km/h
17.12.2017 00:22 0.7 C 96 % 1020.9 mbar 0.00 mm 0.0 km/h W-NW 289 0 min 0.0 UV-I 0 W/m 0.7 C 0.0 km/h
17.12.2017 00:20 0.7 C 96 % 1020.9 mbar 0.00 mm 0.0 km/h W-NW 289 0 min 0.0 UV-I 0 W/m 0.7 C 0.0 km/h
17.12.2017 00:18 0.7 C 96 % 1020.9 mbar 0.00 mm 0.0 km/h W-NW 289 0 min 0.0 UV-I 0 W/m 0.7 C 0.0 km/h
17.12.2017 00:16 0.7 C 96 % 1020.9 mbar 0.00 mm 0.0 km/h W-NW 289 0 min 0.0 UV-I 0 W/m 0.7 C 0.0 km/h
17.12.2017 00:14 0.7 C 96 % 1020.9 mbar 0.00 mm 0.0 km/h W-NW 289 0 min 0.0 UV-I 0 W/m 0.7 C 0.0 km/h
17.12.2017 00:12 0.7 C 96 % 1020.9 mbar 0.00 mm 0.0 km/h W-NW 289 0 min 0.0 UV-I 0 W/m 0.7 C 0.0 km/h
17.12.2017 00:10 0.7 C 96 % 1020.9 mbar 0.00 mm 0.1 km/h W-NW 289 0 min 0.0 UV-I 0 W/m 0.7 C 1.6 km/h
17.12.2017 00:08 0.7 C 96 % 1020.8 mbar 0.00 mm 0.0 km/h W-NW 289 0 min 0.0 UV-I 0 W/m 0.7 C 0.0 km/h
17.12.2017 00:06 0.7 C 96 % 1020.9 mbar 0.00 mm 0.0 km/h W-NW 289 0 min 0.0 UV-I 0 W/m 0.7 C 0.0 km/h
17.12.2017 00:04 0.7 C 96 % 1020.8 mbar 0.00 mm 0.0 km/h W-NW 289 0 min 0.0 UV-I 0 W/m 0.7 C 0.0 km/h
17.12.2017 00:02 0.7 C 96 % 1020.9 mbar 0.00 mm 0.0 km/h W-NW 289 0 min 0.0 UV-I 0 W/m 0.7 C 0.0 km/h
17.12.2017 00:00 0.7 C 96 % 1020.8 mbar 0.00 mm 0.0 km/h W-NW 289 0 min 0.0 UV-I 0 W/m 0.7 C 0.0 km/h
16.12.2017 23:58 0.7 C 96 % 1020.8 mbar 0.00 mm 0.2 km/h W-NW 289 0 min 0.0 UV-I 0 W/m 0.7 C 1.6 km/h
16.12.2017 23:56 0.7 C 96 % 1020.8 mbar 0.00 mm 1.2 km/h W-NW 289 0 min 0.0 UV-I 0 W/m 0.7 C 3.2 km/h
16.12.2017 23:54 0.7 C 96 % 1020.8 mbar 0.00 mm 1.3 km/h W-NW 289 0 min 0.0 UV-I 0 W/m 0.7 C 1.6 km/h
16.12.2017 23:52 0.7 C 96 % 1020.8 mbar 0.00 mm 1.7 km/h W-NW 289 0 min 0.0 UV-I 0 W/m 0.7 C 3.2 km/h
16.12.2017 23:50 0.7 C 96 % 1020.8 mbar 0.00 mm 1.8 km/h W-NW 289 0 min 0.0 UV-I 0 W/m 0.7 C 3.2 km/h
16.12.2017 23:48 0.7 C 96 % 1020.7 mbar 0.00 mm 1.1 km/h W-NW 289 0 min 0.0 UV-I 0 W/m 0.7 C 3.2 km/h
16.12.2017 23:46 0.7 C 96 % 1020.8 mbar 0.00 mm 0.0 km/h W-NW 289 0 min 0.0 UV-I 0 W/m 0.7 C 0.0 km/h
16.12.2017 23:44 0.7 C 96 % 1020.7 mbar 0.00 mm 0.0 km/h W-NW 289 0 min 0.0 UV-I 0 W/m 0.7 C 0.0 km/h
16.12.2017 23:42 0.7 C 96 % 1020.7 mbar 0.00 mm 0.0 km/h W-NW 289 0 min 0.0 UV-I 0 W/m 0.7 C 0.0 km/h
16.12.2017 23:40 0.7 C 96 % 1020.8 mbar 0.00 mm 1.4 km/h W-NW 289 0 min 0.0 UV-I 0 W/m 0.7 C 3.2 km/h
16.12.2017 23:38 0.7 C 96 % 1020.8 mbar 0.00 mm 0.4 km/h W-NW 289 0 min 0.0 UV-I 0 W/m 0.7 C 1.6 km/h
16.12.2017 23:36 0.7 C 96 % 1020.8 mbar 0.00 mm 0.0 km/h W-NW 289 0 min 0.0 UV-I 0 W/m 0.7 C 0.0 km/h
16.12.2017 23:34 0.7 C 96 % 1020.8 mbar 0.00 mm 0.0 km/h W-NW 289 0 min 0.0 UV-I 0 W/m 0.7 C 0.0 km/h
16.12.2017 23:32 0.7 C 96 % 1020.9 mbar 0.00 mm 0.0 km/h W-NW 289 0 min 0.0 UV-I 0 W/m 0.7 C 0.0 km/h
16.12.2017 23:30 0.7 C 96 % 1020.9 mbar 0.00 mm 0.0 km/h W-NW 289 0 min 0.0 UV-I 0 W/m 0.7 C 0.0 km/h
16.12.2017 23:28 0.7 C 96 % 1020.9 mbar 0.00 mm 0.0 km/h W-NW 289 0 min 0.0 UV-I 0 W/m 0.7 C 0.0 km/h
16.12.2017 23:26 0.8 C 96 % 1020.9 mbar 0.00 mm 0.0 km/h W-NW 289 0 min 0.0 UV-I 0 W/m 0.8 C 0.0 km/h
16.12.2017 23:24 0.8 C 96 % 1020.9 mbar 0.00 mm 0.0 km/h W-NW 289 0 min 0.0 UV-I 0 W/m 0.8 C 0.0 km/h
16.12.2017 23:22 0.8 C 96 % 1020.8 mbar 0.00 mm 0.0 km/h W-NW 289 0 min 0.0 UV-I 0 W/m 0.8 C 0.0 km/h
16.12.2017 23:20 0.8 C 96 % 1020.8 mbar 0.00 mm 0.0 km/h W-NW 289 0 min 0.0 UV-I 0 W/m 0.8 C 0.0 km/h
16.12.2017 23:18 0.7 C 96 % 1020.8 mbar 0.00 mm 0.0 km/h W-NW 289 0 min 0.0 UV-I 0 W/m 0.7 C 0.0 km/h
16.12.2017 23:16 0.8 C 96 % 1020.8 mbar 0.00 mm 0.2 km/h W-NW 289 0 min 0.0 UV-I 0 W/m 0.8 C 1.6 km/h
16.12.2017 23:14 0.8 C 96 % 1020.8 mbar 0.00 mm 0.0 km/h W-NW 289 0 min 0.0 UV-I 0 W/m 0.8 C 0.0 km/h
16.12.2017 23:12 0.8 C 96 % 1020.8 mbar 0.00 mm 1.6 km/h W-NW 289 0 min 0.0 UV-I 0 W/m 0.8 C 3.2 km/h
16.12.2017 23:10 0.7 C 96 % 1020.8 mbar 0.00 mm 1.6 km/h W-NW 289 0 min 0.0 UV-I 0 W/m 0.7 C 3.2 km/h
16.12.2017 23:08 0.7 C 96 % 1020.7 mbar 0.00 mm 1.0 km/h W-NW 289 0 min 0.0 UV-I 0 W/m 0.7 C 1.6 km/h
16.12.2017 23:06 0.7 C 96 % 1020.7 mbar 0.00 mm 0.0 km/h W-NW 289 0 min 0.0 UV-I 0 W/m 0.7 C 0.0 km/h
16.12.2017 23:04 0.7 C 96 % 1020.7 mbar 0.00 mm 0.0 km/h W-NW 289 0 min 0.0 UV-I 0 W/m 0.7 C 0.0 km/h
16.12.2017 23:02 0.7 C 96 % 1020.7 mbar 0.00 mm 0.0 km/h W-NW 289 0 min 0.0 UV-I 0 W/m 0.7 C 0.0 km/h
16.12.2017 23:00 0.7 C 96 % 1020.8 mbar 0.00 mm 0.0 km/h W-NW 289 0 min 0.0 UV-I 0 W/m 0.7 C 0.0 km/h
16.12.2017 22:58 0.7 C 96 % 1020.8 mbar 0.00 mm 0.0 km/h W-NW 289 0 min 0.0 UV-I 0 W/m 0.7 C 0.0 km/h
16.12.2017 22:56 0.7 C 96 % 1020.8 mbar 0.00 mm 0.0 km/h W-NW 289 0 min 0.0 UV-I 0 W/m 0.7 C 0.0 km/h
16.12.2017 22:54 0.7 C 96 % 1020.7 mbar 0.00 mm 0.0 km/h W-NW 289 0 min 0.0 UV-I 0 W/m 0.7 C 0.0 km/h
16.12.2017 22:52 0.7 C 96 % 1020.7 mbar 0.00 mm 0.0 km/h W-NW 289 0 min 0.0 UV-I 0 W/m 0.7 C 0.0 km/h
16.12.2017 22:50 0.8 C 96 % 1020.7 mbar 0.00 mm 0.0 km/h W-NW 289 0 min 0.0 UV-I 0 W/m 0.8 C 0.0 km/h
16.12.2017 22:48 0.8 C 96 % 1020.7 mbar 0.00 mm 0.0 km/h W-NW 289 0 min 0.0 UV-I 0 W/m 0.8 C 0.0 km/h
16.12.2017 22:46 0.7 C 96 % 1020.7 mbar 0.00 mm 0.0 km/h W-NW 289 0 min 0.0 UV-I 0 W/m 0.7 C 0.0 km/h
16.12.2017 22:44 0.8 C 96 % 1020.7 mbar 0.00 mm 0.0 km/h W-NW 289 0 min 0.0 UV-I 0 W/m 0.8 C 0.0 km/h
16.12.2017 22:42 0.8 C 96 % 1020.7 mbar 0.00 mm 0.0 km/h W-NW 289 0 min 0.0 UV-I 0 W/m 0.8 C 0.0 km/h
16.12.2017 22:40 0.8 C 96 % 1020.6 mbar 0.00 mm 0.0 km/h W-NW 289 0 min 0.0 UV-I 0 W/m 0.8 C 0.0 km/h
16.12.2017 22:38 0.8 C 96 % 1020.6 mbar 0.00 mm 0.0 km/h W-NW 289 0 min 0.0 UV-I 0 W/m 0.8 C 0.0 km/h
16.12.2017 22:36 0.8 C 96 % 1020.6 mbar 0.00 mm 0.0 km/h W-NW 289 0 min 0.0 UV-I 0 W/m 0.8 C 0.0 km/h
16.12.2017 22:34 0.8 C 96 % 1020.6 mbar 0.00 mm 0.0 km/h W-NW 289 0 min 0.0 UV-I 0 W/m 0.8 C 0.0 km/h
16.12.2017 22:32 0.8 C 96 % 1020.5 mbar 0.00 mm 0.0 km/h W-NW 289 0 min 0.0 UV-I 0 W/m 0.8 C 0.0 km/h
16.12.2017 22:30 0.8 C 96 % 1020.5 mbar 0.00 mm 0.0 km/h W-NW 289 0 min 0.0 UV-I 0 W/m 0.8 C 0.0 km/h
16.12.2017 22:28 0.8 C 96 % 1020.4 mbar 0.00 mm 0.0 km/h W-NW 289 0 min 0.0 UV-I 0 W/m 0.8 C 0.0 km/h
16.12.2017 22:26 0.8 C 96 % 1020.4 mbar 0.00 mm 0.0 km/h W-NW 289 0 min 0.0 UV-I 0 W/m 0.8 C 0.0 km/h
16.12.2017 22:24 0.8 C 96 % 1020.4 mbar 0.00 mm 0.0 km/h W-NW 289 0 min 0.0 UV-I 0 W/m 0.8 C 0.0 km/h
16.12.2017 22:22 0.8 C 96 % 1020.4 mbar 0.00 mm 0.0 km/h W-NW 289 0 min 0.0 UV-I 0 W/m 0.8 C 0.0 km/h
16.12.2017 22:20 0.8 C 96 % 1020.4 mbar 0.00 mm 0.0 km/h W-NW 289 0 min 0.0 UV-I 0 W/m 0.8 C 0.0 km/h
16.12.2017 22:18 0.8 C 96 % 1020.4 mbar 0.00 mm 0.0 km/h W-NW 289 0 min 0.0 UV-I 0 W/m 0.8 C 0.0 km/h
16.12.2017 22:16 0.8 C 96 % 1020.4 mbar 0.00 mm 0.0 km/h W-NW 289 0 min 0.0 UV-I 0 W/m 0.8 C 0.0 km/h
16.12.2017 22:14 0.8 C 96 % 1020.4 mbar 0.00 mm 0.0 km/h W-NW 289 0 min 0.0 UV-I 0 W/m 0.8 C 0.0 km/h
16.12.2017 22:12 0.8 C 96 % 1020.4 mbar 0.00 mm 0.0 km/h W-NW 289 0 min 0.0 UV-I 0 W/m 0.8 C 0.0 km/h
16.12.2017 22:10 0.8 C 96 % 1020.4 mbar 0.00 mm 0.0 km/h W-NW 289 0 min 0.0 UV-I 0 W/m 0.8 C 0.0 km/h
16.12.2017 22:08 0.8 C 96 % 1020.4 mbar 0.00 mm 0.0 km/h W-NW 289 0 min 0.0 UV-I 0 W/m 0.8 C 0.0 km/h
16.12.2017 22:06 0.8 C 96 % 1020.4 mbar 0.00 mm 0.0 km/h W-NW 289 0 min 0.0 UV-I 0 W/m 0.8 C 0.0 km/h
16.12.2017 22:04 0.8 C 96 % 1020.4 mbar 0.00 mm 0.0 km/h W-NW 289 0 min 0.0 UV-I 0 W/m 0.8 C 0.0 km/h
16.12.2017 22:02 0.8 C 96 % 1020.4 mbar 0.00 mm 0.0 km/h W-NW 289 0 min 0.0 UV-I 0 W/m 0.8 C 0.0 km/h
16.12.2017 22:00 0.9 C 96 % 1020.4 mbar 0.00 mm 0.0 km/h W-NW 289 0 min 0.0 UV-I 0 W/m 0.9 C 0.0 km/h
16.12.2017 21:58 0.8 C 96 % 1020.4 mbar 0.00 mm 0.0 km/h W-NW 289 0 min 0.0 UV-I 0 W/m 0.8 C 0.0 km/h
16.12.2017 21:56 0.8 C 96 % 1020.4 mbar 0.00 mm 0.0 km/h W-NW 289 0 min 0.0 UV-I 0 W/m 0.8 C 0.0 km/h
16.12.2017 21:54 0.9 C 96 % 1020.4 mbar 0.00 mm 0.0 km/h W-NW 289 0 min 0.0 UV-I 0 W/m 0.9 C 0.0 km/h
16.12.2017 21:52 0.9 C 96 % 1020.4 mbar 0.00 mm 0.0 km/h W-NW 289 0 min 0.0 UV-I 0 W/m 0.9 C 0.0 km/h
16.12.2017 21:50 0.9 C 96 % 1020.4 mbar 0.00 mm 0.0 km/h W-NW 289 0 min 0.0 UV-I 0 W/m 0.9 C 0.0 km/h
16.12.2017 21:48 0.9 C 96 % 1020.4 mbar 0.00 mm 0.0 km/h W-NW 289 0 min 0.0 UV-I 0 W/m 0.9 C 0.0 km/h
16.12.2017 21:46 0.9 C 96 % 1020.4 mbar 0.00 mm 0.0 km/h W-NW 289 0 min 0.0 UV-I 0 W/m 0.9 C 0.0 km/h
16.12.2017 21:44 0.9 C 96 % 1020.4 mbar 0.00 mm 0.0 km/h W-NW 289 0 min 0.0 UV-I 0 W/m 0.9 C 0.0 km/h
16.12.2017 21:42 0.9 C 96 % 1020.3 mbar 0.00 mm 0.0 km/h W-NW 289 0 min 0.0 UV-I 0 W/m 0.9 C 0.0 km/h
16.12.2017 21:40 0.9 C 96 % 1020.3 mbar 0.00 mm 0.0 km/h W-NW 289 0 min 0.0 UV-I 0 W/m 0.9 C 0.0 km/h
16.12.2017 21:38 0.9 C 96 % 1020.3 mbar 0.00 mm 0.0 km/h W-NW 289 0 min 0.0 UV-I 0 W/m 0.9 C 0.0 km/h
16.12.2017 21:36 0.9 C 96 % 1020.3 mbar 0.00 mm 1.1 km/h W-NW 289 0 min 0.0 UV-I 0 W/m 0.9 C 3.2 km/h
16.12.2017 21:34 0.9 C 96 % 1020.3 mbar 0.00 mm 0.3 km/h W-NW 289 0 min 0.0 UV-I 0 W/m 0.9 C 1.6 km/h
16.12.2017 21:32 0.9 C 96 % 1020.3 mbar 0.00 mm 0.0 km/h W-NW 289 0 min 0.0 UV-I 0 W/m 0.9 C 0.0 km/h
16.12.2017 21:30 0.9 C 96 % 1020.3 mbar 0.00 mm 0.0 km/h W-NW 289 0 min 0.0 UV-I 0 W/m 0.9 C 0.0 km/h
16.12.2017 21:28 0.9 C 96 % 1020.3 mbar 0.00 mm 0.0 km/h W-NW 289 0 min 0.0 UV-I 0 W/m 0.9 C 0.0 km/h
16.12.2017 21:26 0.9 C 96 % 1020.3 mbar 0.00 mm 0.0 km/h W-NW 289 0 min 0.0 UV-I 0 W/m 0.9 C 0.0 km/h
16.12.2017 21:24 0.9 C 96 % 1020.1 mbar 0.00 mm 0.1 km/h W-NW 289 0 min 0.0 UV-I 0 W/m 0.9 C 1.6 km/h
16.12.2017 21:22 0.9 C 96 % 1020.1 mbar 0.00 mm 0.0 km/h W-NW 289 0 min 0.0 UV-I 0 W/m 0.9 C 0.0 km/h
16.12.2017 21:20 0.9 C 96 % 1020.1 mbar 0.00 mm 0.0 km/h W-NW 289 0 min 0.0 UV-I 0 W/m 0.9 C 0.0 km/h
16.12.2017 21:18 0.9 C 96 % 1020.2 mbar 0.00 mm 0.0 km/h W-NW 289 0 min 0.0 UV-I 0 W/m 0.9 C 0.0 km/h
16.12.2017 21:16 0.9 C 96 % 1020.2 mbar 0.00 mm 0.0 km/h W-NW 289 0 min 0.0 UV-I 0 W/m 0.9 C 0.0 km/h
16.12.2017 21:14 0.9 C 96 % 1020.2 mbar 0.00 mm 1.3 km/h W-NW 289 0 min 0.0 UV-I 0 W/m 0.9 C 3.2 km/h
16.12.2017 21:12 0.9 C 96 % 1020.2 mbar 0.00 mm 0.7 km/h W-NW 289 0 min 0.0 UV-I 0 W/m 0.9 C 3.2 km/h
16.12.2017 21:10 0.9 C 96 % 1020.1 mbar 0.00 mm 1.8 km/h W-NW 289 0 min 0.0 UV-I 0 W/m 0.9 C 3.2 km/h
16.12.2017 21:08 0.9 C 96 % 1020.1 mbar 0.00 mm 2.0 km/h W-NW 289 0 min 0.0 UV-I 0 W/m 0.9 C 3.2 km/h
16.12.2017 21:06 0.9 C 96 % 1020.1 mbar 0.00 mm 2.3 km/h W-NW 289 0 min 0.0 UV-I 0 W/m 0.9 C 3.2 km/h
16.12.2017 21:04 0.9 C 96 % 1020.1 mbar 0.00 mm 3.5 km/h W-NW 289 0 min 0.0 UV-I 0 W/m 0.9 C 4.8 km/h
16.12.2017 21:02 1.0 C 96 % 1020.1 mbar 0.00 mm 1.1 km/h W-NW 303 0 min 0.0 UV-I 0 W/m 1.0 C 4.8 km/h
16.12.2017 21:00 1.0 C 96 % 1020.1 mbar 0.00 mm 0.0 km/h W-NW 303 0 min 0.0 UV-I 0 W/m 1.0 C 0.0 km/h
16.12.2017 20:58 0.9 C 96 % 1020.1 mbar 0.00 mm 0.0 km/h W-NW 303 0 min 0.0 UV-I 0 W/m 0.9 C 0.0 km/h
16.12.2017 20:56 0.9 C 96 % 1020.0 mbar 0.00 mm 0.0 km/h W-NW 303 0 min 0.0 UV-I 0 W/m 0.9 C 0.0 km/h
16.12.2017 20:54 0.9 C 96 % 1020.0 mbar 0.00 mm 0.0 km/h W-NW 303 0 min 0.0 UV-I 0 W/m 0.9 C 0.0 km/h
16.12.2017 20:52 0.9 C 96 % 1020.1 mbar 0.00 mm 0.0 km/h W-NW 303 0 min 0.0 UV-I 0 W/m 0.9 C 0.0 km/h
16.12.2017 20:50 0.9 C 96 % 1019.9 mbar 0.00 mm 0.0 km/h W-NW 303 0 min 0.0 UV-I 0 W/m 0.9 C 1.6 km/h
16.12.2017 20:48 0.9 C 96 % 1019.9 mbar 0.00 mm 0.9 km/h W-NW 303 0 min 0.0 UV-I 0 W/m 0.9 C 1.6 km/h
16.12.2017 20:46 0.9 C 96 % 1019.9 mbar 0.00 mm 1.0 km/h W-NW 303 0 min 0.0 UV-I 0 W/m 0.9 C 3.2 km/h
16.12.2017 20:44 0.9 C 96 % 1019.8 mbar 0.00 mm 0.0 km/h W-NW 303 0 min 0.0 UV-I 0 W/m 0.9 C 0.0 km/h
16.12.2017 20:42 0.9 C 96 % 1019.8 mbar 0.00 mm 0.0 km/h W-NW 303 0 min 0.0 UV-I 0 W/m 0.9 C 0.0 km/h
16.12.2017 20:40 0.9 C 96 % 1019.8 mbar 0.00 mm 0.0 km/h W-NW 303 0 min 0.0 UV-I 0 W/m 0.9 C 0.0 km/h
16.12.2017 20:38 0.9 C 96 % 1019.8 mbar 0.00 mm 0.0 km/h W-NW 303 0 min 0.0 UV-I 0 W/m 0.9 C 0.0 km/h
16.12.2017 20:36 0.9 C 96 % 1019.8 mbar 0.00 mm 0.0 km/h W-NW 303 0 min 0.0 UV-I 0 W/m 0.9 C 0.0 km/h
16.12.2017 20:34 1.0 C 96 % 1019.7 mbar 0.00 mm 0.0 km/h W-NW 303 0 min 0.0 UV-I 0 W/m 1.0 C 0.0 km/h
16.12.2017 20:32 1.0 C 96 % 1019.7 mbar 0.00 mm 0.0 km/h W-NW 303 0 min 0.0 UV-I 0 W/m 1.0 C 0.0 km/h
16.12.2017 20:30 1.0 C 96 % 1019.7 mbar 0.00 mm 0.0 km/h W-NW 303 0 min 0.0 UV-I 0 W/m 1.0 C 0.0 km/h
16.12.2017 20:28 1.0 C 96 % 1019.7 mbar 0.00 mm 0.0 km/h W-NW 303 0 min 0.0 UV-I 0 W/m 1.0 C 0.0 km/h
16.12.2017 20:26 1.0 C 96 % 1019.7 mbar 0.00 mm 0.3 km/h W-NW 303 0 min 0.0 UV-I 0 W/m 1.0 C 1.6 km/h
16.12.2017 20:24 1.0 C 96 % 1019.7 mbar 0.00 mm 0.0 km/h W-NW 303 0 min 0.0 UV-I 0 W/m 1.0 C 0.0 km/h
16.12.2017 20:22 1.1 C 96 % 1019.7 mbar 0.00 mm 0.0 km/h W-NW 303 0 min 0.0 UV-I 0 W/m 1.1 C 0.0 km/h
16.12.2017 20:20 1.0 C 96 % 1019.6 mbar 0.00 mm 1.1 km/h W-NW 303 0 min 0.0 UV-I 0 W/m 1.0 C 3.2 km/h
16.12.2017 20:18 1.1 C 96 % 1019.6 mbar 0.00 mm 1.6 km/h W-NW 303 0 min 0.0 UV-I 0 W/m 1.1 C 3.2 km/h
16.12.2017 20:16 1.1 C 96 % 1019.5 mbar 0.00 mm 0.0 km/h W-NW 303 0 min 0.0 UV-I 0 W/m 1.1 C 0.0 km/h
16.12.2017 20:14 1.1 C 96 % 1019.5 mbar 0.00 mm 0.0 km/h W-NW 303 0 min 0.0 UV-I 0 W/m 1.1 C 0.0 km/h
16.12.2017 20:12 1.0 C 96 % 1019.5 mbar 0.00 mm 0.0 km/h W-NW 303 0 min 0.0 UV-I 0 W/m 1.0 C 0.0 km/h
16.12.2017 20:10 1.0 C 96 % 1019.6 mbar 0.00 mm 0.0 km/h W-NW 303 0 min 0.0 UV-I 0 W/m 1.0 C 0.0 km/h
16.12.2017 20:08 1.0 C 96 % 1019.5 mbar 0.00 mm 0.0 km/h W-NW 303 0 min 0.0 UV-I 0 W/m 1.0 C 0.0 km/h
16.12.2017 20:06 1.0 C 96 % 1019.4 mbar 0.00 mm 0.0 km/h W-NW 303 0 min 0.0 UV-I 0 W/m 1.0 C 0.0 km/h
16.12.2017 20:04 1.1 C 96 % 1019.4 mbar 0.00 mm 0.0 km/h W-NW 303 0 min 0.0 UV-I 0 W/m 1.1 C 0.0 km/h
16.12.2017 20:02 1.1 C 96 % 1019.4 mbar 0.00 mm 0.0 km/h W-NW 303 0 min 0.0 UV-I 0 W/m 1.1 C 0.0 km/h
16.12.2017 20:00 1.1 C 96 % 1019.3 mbar 0.00 mm 0.0 km/h W-NW 303 0 min 0.0 UV-I 0 W/m 1.1 C 0.0 km/h
16.12.2017 19:58 1.1 C 96 % 1019.3 mbar 0.00 mm 0.3 km/h W-NW 303 0 min 0.0 UV-I 0 W/m 1.1 C 1.6 km/h
16.12.2017 19:56 1.1 C 96 % 1019.3 mbar 0.00 mm 2.3 km/h W-NW 303 0 min 0.0 UV-I 0 W/m 1.1 C 3.2 km/h
16.12.2017 19:54 1.1 C 96 % 1019.2 mbar 0.00 mm 2.3 km/h W-NW 303 0 min 0.0 UV-I 0 W/m 1.1 C 3.2 km/h
16.12.2017 19:52 1.1 C 96 % 1019.2 mbar 0.00 mm 2.7 km/h W-NW 303 0 min 0.0 UV-I 0 W/m 1.1 C 3.2 km/h
16.12.2017 19:50 1.1 C 96 % 1019.2 mbar 0.00 mm 0.4 km/h W-NW 303 0 min 0.0 UV-I 0 W/m 1.1 C 3.2 km/h
16.12.2017 19:48 1.1 C 96 % 1019.3 mbar 0.00 mm 2.7 km/h W-NW 303 0 min 0.0 UV-I 0 W/m 1.1 C 3.2 km/h
16.12.2017 19:46 1.1 C 96 % 1019.2 mbar 0.00 mm 3.5 km/h W-NW 303 0 min 0.0 UV-I 0 W/m 1.1 C 4.8 km/h
16.12.2017 19:44 1.1 C 96 % 1019.2 mbar 0.00 mm 3.8 km/h W-NW 303 0 min 0.0 UV-I 0 W/m 1.1 C 4.8 km/h
16.12.2017 19:42 1.1 C 96 % 1019.1 mbar 0.00 mm 3.8 km/h NW 306 0 min 0.0 UV-I 0 W/m 1.1 C 4.8 km/h
16.12.2017 19:40 1.1 C 96 % 1019.1 mbar 0.00 mm 3.5 km/h NW 312 0 min 0.0 UV-I 0 W/m 1.1 C 4.8 km/h
16.12.2017 19:38 1.1 C 96 % 1019.1 mbar 0.00 mm 3.9 km/h NW 312 0 min 0.0 UV-I 0 W/m 1.1 C 4.8 km/h
16.12.2017 19:36 1.1 C 96 % 1019.1 mbar 0.00 mm 2.5 km/h NW 313 0 min 0.0 UV-I 0 W/m 1.1 C 4.8 km/h
16.12.2017 19:34 1.1 C 96 % 1019.0 mbar 0.00 mm 1.6 km/h NW 313 0 min 0.0 UV-I 0 W/m 1.1 C 3.2 km/h
16.12.2017 19:32 1.1 C 96 % 1019.1 mbar 0.00 mm 1.0 km/h NW 313 0 min 0.0 UV-I 0 W/m 1.1 C 3.2 km/h
16.12.2017 19:30 1.1 C 96 % 1019.0 mbar 0.00 mm 1.0 km/h NW 313 0 min 0.0 UV-I 0 W/m 1.1 C 3.2 km/h
16.12.2017 19:28 1.1 C 96 % 1018.9 mbar 0.00 mm 0.1 km/h NW 313 0 min 0.0 UV-I 0 W/m 1.1 C 1.6 km/h
16.12.2017 19:26 1.1 C 96 % 1018.9 mbar 0.00 mm 2.8 km/h NW 313 0 min 0.0 UV-I 0 W/m 1.1 C 4.8 km/h
16.12.2017 19:24 1.1 C 96 % 1018.9 mbar 0.00 mm 2.3 km/h NW 313 0 min 0.0 UV-I 0 W/m 1.1 C 4.8 km/h
16.12.2017 19:22 1.1 C 96 % 1018.9 mbar 0.00 mm 1.7 km/h N-NW 333 0 min 0.0 UV-I 0 W/m 1.1 C 3.2 km/h
16.12.2017 19:20 1.1 C 96 % 1018.9 mbar 0.00 mm 0.3 km/h N-NW 339 0 min 0.0 UV-I 0 W/m 1.1 C 1.6 km/h
16.12.2017 19:18 1.1 C 96 % 1018.8 mbar 0.00 mm 0.0 km/h N-NW 339 0 min 0.0 UV-I 0 W/m 1.1 C 0.0 km/h
16.12.2017 19:16 1.1 C 96 % 1018.8 mbar 0.00 mm 0.0 km/h N-NW 339 0 min 0.0 UV-I 0 W/m 1.1 C 1.6 km/h
16.12.2017 19:14 1.1 C 96 % 1018.7 mbar 0.00 mm 2.3 km/h N-NW 339 0 min 0.0 UV-I 0 W/m 1.1 C 3.2 km/h
16.12.2017 19:12 1.1 C 96 % 1018.7 mbar 0.00 mm 1.7 km/h N-NW 331 0 min 0.0 UV-I 0 W/m 1.1 C 3.2 km/h
16.12.2017 19:10 1.1 C 96 % 1018.7 mbar 0.00 mm 2.3 km/h N-NW 331 0 min 0.0 UV-I 0 W/m 1.1 C 3.2 km/h
16.12.2017 19:08 1.1 C 96 % 1018.7 mbar 0.00 mm 2.0 km/h N-NW 329 0 min 0.0 UV-I 0 W/m 1.1 C 4.8 km/h
16.12.2017 19:06 1.1 C 96 % 1018.6 mbar 0.00 mm 2.8 km/h NW 318 0 min 0.0 UV-I 0 W/m 1.1 C 6.4 km/h
16.12.2017 19:04 1.1 C 96 % 1018.6 mbar 0.00 mm 4.1 km/h N-NW 347 0 min 0.0 UV-I 0 W/m 1.1 C 6.4 km/h
16.12.2017 19:02 1.1 C 96 % 1018.5 mbar 0.00 mm 4.0 km/h N-NW 348 0 min 0.0 UV-I 0 W/m 1.1 C 8.0 km/h
16.12.2017 19:00 1.1 C 96 % 1018.5 mbar 0.00 mm 0.9 km/h W-SW 255 0 min 0.0 UV-I 0 W/m 1.1 C 3.2 km/h
16.12.2017 18:58 1.1 C 96 % 1018.5 mbar 0.00 mm 0.0 km/h W-SW 255 0 min 0.0 UV-I 0 W/m 1.1 C 0.0 km/h
16.12.2017 18:56 1.0 C 96 % 1018.4 mbar 0.20 mm 0.0 km/h W-SW 255 0 min 0.0 UV-I 0 W/m 1.0 C 0.0 km/h
16.12.2017 18:54 1.0 C 96 % 1018.4 mbar 0.00 mm 0.0 km/h W-SW 255 0 min 0.0 UV-I 0 W/m 1.0 C 0.0 km/h
16.12.2017 18:52 1.0 C 96 % 1018.4 mbar 0.00 mm 0.0 km/h W-SW 255 0 min 0.0 UV-I 0 W/m 1.0 C 0.0 km/h
16.12.2017 18:50 1.0 C 96 % 1018.3 mbar 0.00 mm 0.2 km/h W-SW 255 0 min 0.0 UV-I 0 W/m 1.0 C 1.6 km/h
16.12.2017 18:48 1.0 C 96 % 1018.2 mbar 0.00 mm 3.5 km/h W-SW 255 0 min 0.0 UV-I 0 W/m 1.0 C 6.4 km/h
16.12.2017 18:46 1.0 C 96 % 1018.2 mbar 0.00 mm 4.9 km/h SW 233 0 min 0.0 UV-I 0 W/m 1.0 C 8.0 km/h
16.12.2017 18:44 0.9 C 96 % 1018.2 mbar 0.00 mm 3.5 km/h W-SW 251 0 min 0.0 UV-I 0 W/m 0.9 C 6.4 km/h
16.12.2017 18:42 0.9 C 96 % 1018.2 mbar 0.00 mm 3.0 km/h W-SW 251 0 min 0.0 UV-I 0 W/m 0.9 C 4.8 km/h
16.12.2017 18:40 0.9 C 96 % 1018.2 mbar 0.00 mm 3.7 km/h W-SW 252 0 min 0.0 UV-I 0 W/m 0.9 C 4.8 km/h
16.12.2017 18:38 0.9 C 96 % 1018.0 mbar 0.00 mm 2.0 km/h W-SW 241 0 min 0.0 UV-I 0 W/m 0.9 C 4.8 km/h
16.12.2017 18:36 0.9 C 96 % 1018.0 mbar 0.00 mm 3.1 km/h W-SW 241 0 min 0.0 UV-I 0 W/m 0.9 C 4.8 km/h
16.12.2017 18:34 0.9 C 96 % 1017.9 mbar 0.00 mm 2.4 km/h W-SW 238 0 min 0.0 UV-I 0 W/m 0.9 C 3.2 km/h
16.12.2017 18:32 0.9 C 96 % 1017.9 mbar 0.00 mm 4.0 km/h W-SW 238 0 min 0.0 UV-I 0 W/m 0.9 C 4.8 km/h
16.12.2017 18:30 0.9 C 96 % 1017.9 mbar 0.00 mm 3.1 km/h W-SW 243 0 min 0.0 UV-I 0 W/m 0.9 C 4.8 km/h
16.12.2017 18:28 0.9 C 96 % 1017.9 mbar 0.00 mm 0.0 km/h N-NO 18 0 min 0.0 UV-I 0 W/m 0.9 C 0.0 km/h
16.12.2017 18:26 1.0 C 96 % 1017.8 mbar 0.00 mm 0.0 km/h N-NO 18 0 min 0.0 UV-I 0 W/m 1.0 C 0.0 km/h
16.12.2017 18:24 0.9 C 96 % 1017.8 mbar 0.00 mm 0.0 km/h N-NO 18 0 min 0.0 UV-I 0 W/m 0.9 C 0.0 km/h
16.12.2017 18:22 1.0 C 96 % 1017.8 mbar 0.00 mm 0.9 km/h N-NO 18 0 min 0.0 UV-I 0 W/m 1.0 C 3.2 km/h
16.12.2017 18:20 1.0 C 96 % 1017.8 mbar 0.00 mm 0.0 km/h N-NO 18 0 min 0.0 UV-I 0 W/m 1.0 C 0.0 km/h
16.12.2017 18:18 1.0 C 96 % 1017.7 mbar 0.00 mm 0.0 km/h N-NO 18 0 min 0.0 UV-I 0 W/m 1.0 C 0.0 km/h
16.12.2017 18:16 1.0 C 96 % 1017.6 mbar 0.00 mm 0.3 km/h N-NO 18 0 min 0.0 UV-I 0 W/m 1.0 C 1.6 km/h
16.12.2017 18:14 1.0 C 96 % 1017.6 mbar 0.00 mm 2.6 km/h N-NO 18 0 min 0.0 UV-I 0 W/m 1.0 C 4.8 km/h
16.12.2017 18:12 1.0 C 95 % 1017.5 mbar 0.00 mm 1.5 km/h N 356 0 min 0.0 UV-I 0 W/m 1.0 C 3.2 km/h
16.12.2017 18:10 1.0 C 95 % 1017.4 mbar 0.00 mm 1.1 km/h N 356 0 min 0.0 UV-I 0 W/m 1.0 C 3.2 km/h
16.12.2017 18:08 1.0 C 95 % 1017.5 mbar 0.00 mm 1.3 km/h N 356 0 min 0.0 UV-I 0 W/m 1.0 C 3.2 km/h
16.12.2017 18:06 1.0 C 95 % 1017.4 mbar 0.00 mm 2.1 km/h N 356 0 min 0.0 UV-I 0 W/m 1.0 C 3.2 km/h
16.12.2017 18:04 1.0 C 95 % 1017.3 mbar 0.00 mm 3.5 km/h N 356 0 min 0.0 UV-I 0 W/m 1.0 C 8.0 km/h
16.12.2017 18:02 1.0 C 95 % 1017.2 mbar 0.00 mm 1.8 km/h W-NW 282 0 min 0.0 UV-I 0 W/m 1.0 C 4.8 km/h
16.12.2017 18:00 1.0 C 95 % 1017.3 mbar 0.00 mm 3.4 km/h W 268 0 min 0.0 UV-I 0 W/m 1.0 C 4.8 km/h
16.12.2017 17:58 1.0 C 95 % 1017.3 mbar 0.00 mm 1.3 km/h S-SW 210 0 min 0.0 UV-I 0 W/m 1.0 C 3.2 km/h
16.12.2017 17:56 1.0 C 95 % 1017.2 mbar 0.00 mm 0.4 km/h S-SW 193 0 min 0.0 UV-I 0 W/m 1.0 C 3.2 km/h
16.12.2017 17:54 1.0 C 95 % 1017.2 mbar 0.00 mm 0.0 km/h S 175 0 min 0.0 UV-I 0 W/m 1.0 C 0.0 km/h
16.12.2017 17:52 1.1 C 95 % 1017.2 mbar 0.00 mm 0.0 km/h S 175 0 min 0.0 UV-I 0 W/m 1.1 C 0.0 km/h
16.12.2017 17:50 1.1 C 95 % 1017.2 mbar 0.00 mm 0.0 km/h S 175 0 min 0.0 UV-I 0 W/m 1.1 C 0.0 km/h
16.12.2017 17:48 1.1 C 95 % 1017.1 mbar 0.00 mm 0.0 km/h S 175 0 min 0.0 UV-I 0 W/m 1.1 C 0.0 km/h
16.12.2017 17:46 1.2 C 95 % 1017.1 mbar 0.00 mm 0.0 km/h S 175 0 min 0.0 UV-I 0 W/m 1.2 C 1.6 km/h
16.12.2017 17:44 1.2 C 95 % 1017.1 mbar 0.00 mm 1.8 km/h S 175 0 min 0.0 UV-I 0 W/m 1.2 C 3.2 km/h
16.12.2017 17:42 1.2 C 95 % 1017.1 mbar 0.00 mm 2.7 km/h S 175 0 min 0.0 UV-I 0 W/m 1.2 C 4.8 km/h
16.12.2017 17:40 1.2 C 95 % 1017.1 mbar 0.00 mm 2.7 km/h S-SO 168 0 min 0.0 UV-I 0 W/m 1.2 C 3.2 km/h
16.12.2017 17:38 1.2 C 95 % 1017.0 mbar 0.00 mm 3.6 km/h S-SO 168 0 min 0.0 UV-I 0 W/m 1.2 C 6.4 km/h
16.12.2017 17:36 1.3 C 95 % 1017.1 mbar 0.00 mm 4.3 km/h S 175 0 min 0.0 UV-I 0 W/m 1.3 C 6.4 km/h
16.12.2017 17:34 1.3 C 95 % 1017.1 mbar 0.00 mm 2.7 km/h W-SW 243 0 min 0.0 UV-I 0 W/m 1.3 C 3.2 km/h
16.12.2017 17:32 1.3 C 95 % 1017.0 mbar 0.00 mm 0.4 km/h W 260 0 min 0.0 UV-I 0 W/m 1.3 C 3.2 km/h
16.12.2017 17:30 1.3 C 95 % 1016.9 mbar 0.00 mm 0.6 km/h W 260 0 min 0.0 UV-I 0 W/m 1.3 C 3.2 km/h
16.12.2017 17:28 1.3 C 95 % 1016.9 mbar 0.00 mm 2.6 km/h W 260 0 min 0.0 UV-I 0 W/m 1.3 C 3.2 km/h
16.12.2017 17:26 1.3 C 95 % 1016.8 mbar 0.00 mm 2.1 km/h W 260 0 min 0.0 UV-I 0 W/m 1.3 C 3.2 km/h
16.12.2017 17:24 1.4 C 95 % 1016.8 mbar 0.00 mm 0.8 km/h W 260 0 min 0.0 UV-I 0 W/m 1.4 C 3.2 km/h
16.12.2017 17:22 1.4 C 95 % 1016.7 mbar 0.00 mm 0.2 km/h W 260 0 min 0.0 UV-I 0 W/m 1.4 C 3.2 km/h
16.12.2017 17:20 1.4 C 95 % 1016.7 mbar 0.00 mm 3.1 km/h W 260 0 min 0.0 UV-I 0 W/m 1.4 C 3.2 km/h
16.12.2017 17:18 1.5 C 95 % 1016.7 mbar 0.00 mm 2.7 km/h SW 233 0 min 0.0 UV-I 0 W/m 1.5 C 4.8 km/h
16.12.2017 17:16 1.5 C 95 % 1016.7 mbar 0.00 mm 2.5 km/h SW 233 0 min 0.0 UV-I 0 W/m 1.5 C 3.2 km/h
16.12.2017 17:14 1.5 C 95 % 1016.7 mbar 0.00 mm 2.4 km/h SW 233 0 min 0.0 UV-I 0 W/m 1.5 C 3.2 km/h
16.12.2017 17:12 1.6 C 95 % 1016.7 mbar 0.00 mm 2.4 km/h SW 233 0 min 0.0 UV-I 0 W/m 1.6 C 3.2 km/h
16.12.2017 17:10 1.6 C 95 % 1016.6 mbar 0.00 mm 3.5 km/h SW 233 0 min 0.0 UV-I 0 W/m 1.6 C 4.8 km/h
16.12.2017 17:08 1.6 C 95 % 1016.5 mbar 0.00 mm 4.6 km/h SW 233 0 min 0.0 UV-I 0 W/m 1.6 C 6.4 km/h
16.12.2017 17:06 1.6 C 95 % 1016.5 mbar 0.00 mm 0.3 km/h W-NW 289 0 min 0.0 UV-I 0 W/m 1.6 C 3.2 km/h
16.12.2017 17:04 1.6 C 95 % 1016.5 mbar 0.00 mm 0.1 km/h W-NW 289 0 min 0.0 UV-I 0 W/m 1.6 C 1.6 km/h
16.12.2017 17:02 1.6 C 95 % 1016.4 mbar 0.00 mm 2.3 km/h W-NW 289 0 min 0.0 UV-I 0 W/m 1.6 C 4.8 km/h
16.12.2017 17:00 1.7 C 95 % 1016.4 mbar 0.00 mm 3.5 km/h W-NW 289 0 min 0.0 UV-I 0 W/m 1.7 C 4.8 km/h
16.12.2017 16:58 1.7 C 95 % 1016.4 mbar 0.00 mm 0.3 km/h W-NW 289 0 min 0.0 UV-I 0 W/m 1.7 C 3.2 km/h
16.12.2017 16:56 1.7 C 95 % 1016.4 mbar 0.00 mm 0.0 km/h W-NW 289 0 min 0.0 UV-I 0 W/m 1.7 C 0.0 km/h
16.12.2017 16:54 1.7 C 94 % 1016.2 mbar 0.00 mm 0.0 km/h W-NW 289 0 min 0.0 UV-I 0 W/m 1.7 C 0.0 km/h
16.12.2017 16:52 1.8 C 94 % 1016.2 mbar 0.00 mm 1.2 km/h W-NW 289 0 min 0.0 UV-I 0 W/m 1.8 C 3.2 km/h
16.12.2017 16:50 1.8 C 95 % 1016.2 mbar 0.00 mm 2.7 km/h W-NW 289 0 min 0.0 UV-I 0 W/m 1.8 C 6.4 km/h
16.12.2017 16:48 1.8 C 95 % 1016.2 mbar 0.00 mm 5.1 km/h W-NW 288 0 min 0.0 UV-I 0 W/m 1.8 C 6.4 km/h
16.12.2017 16:46 1.8 C 95 % 1016.1 mbar 0.00 mm 2.4 km/h W 273 0 min 0.0 UV-I 0 W/m 1.8 C 6.4 km/h
16.12.2017 16:44 1.9 C 95 % 1016.0 mbar 0.00 mm 1.6 km/h S-SO 148 0 min 0.0 UV-I 0 W/m 1.9 C 3.2 km/h
16.12.2017 16:42 1.9 C 95 % 1015.9 mbar 0.00 mm 2.6 km/h S-SO 148 0 min 0.0 UV-I 0 W/m 1.9 C 6.4 km/h
16.12.2017 16:40 1.9 C 95 % 1015.9 mbar 0.00 mm 3.2 km/h SO 138 0 min 0.0 UV-I 0 W/m 1.9 C 4.8 km/h
16.12.2017 16:38 1.9 C 95 % 1015.9 mbar 0.20 mm 6.0 km/h SO 136 0 min 0.0 UV-I 0 W/m 1.9 C 8.0 km/h
16.12.2017 16:36 1.9 C 95 % 1015.8 mbar 0.00 mm 5.4 km/h S-SO 151 0 min 0.0 UV-I 0 W/m 1.9 C 6.4 km/h
16.12.2017 16:34 1.9 C 95 % 1015.8 mbar 0.00 mm 4.7 km/h S 190 0 min 0.0 UV-I 0 W/m 1.9 C 6.4 km/h
16.12.2017 16:32 1.9 C 95 % 1015.8 mbar 0.00 mm 3.0 km/h S-SW 199 0 min 0.0 UV-I 0 W/m 1.9 C 6.4 km/h
16.12.2017 16:30 1.9 C 95 % 1015.7 mbar 0.00 mm 2.0 km/h W-SW 256 0 min 0.0 UV-I 0 W/m 1.9 C 3.2 km/h
16.12.2017 16:28 1.9 C 95 % 1015.7 mbar 0.00 mm 3.4 km/h W-SW 256 0 min 0.0 UV-I 0 W/m 1.9 C 4.8 km/h
16.12.2017 16:26 2.0 C 95 % 1015.7 mbar 0.00 mm 4.5 km/h W-SW 256 0 min 0.0 UV-I 0 W/m 2.0 C 9.7 km/h
16.12.2017 16:24 2.1 C 95 % 1015.8 mbar 0.00 mm 8.9 km/h W 272 0 min 0.0 UV-I 0 W/m -0.2 C 16.1 km/h
16.12.2017 16:22 2.1 C 95 % 1015.8 mbar 0.00 mm 4.0 km/h W 262 0 min 0.0 UV-I 0 W/m 2.1 C 11.3 km/h
16.12.2017 16:20 2.1 C 96 % 1015.7 mbar 0.00 mm 5.1 km/h W-NW 285 0 min 0.0 UV-I 0 W/m 2.1 C 6.4 km/h
16.12.2017 16:18 2.1 C 96 % 1015.6 mbar 0.00 mm 3.2 km/h W-NW 283 0 min 0.0 UV-I 5 W/m 2.1 C 4.8 km/h
16.12.2017 16:16 2.2 C 96 % 1015.5 mbar 0.00 mm 2.1 km/h W-SW 243 0 min 0.0 UV-I 7 W/m 2.2 C 3.2 km/h
16.12.2017 16:14 2.2 C 96 % 1015.4 mbar 0.00 mm 3.1 km/h W-SW 243 0 min 0.0 UV-I 9 W/m 2.2 C 4.8 km/h
16.12.2017 16:12 2.2 C 96 % 1015.3 mbar 0.00 mm 2.7 km/h W-SW 243 0 min 0.0 UV-I 12 W/m 2.2 C 4.8 km/h
16.12.2017 16:10 2.2 C 96 % 1015.3 mbar 0.00 mm 2.4 km/h SW 216 0 min 0.0 UV-I 14 W/m 2.2 C 3.2 km/h
16.12.2017 16:08 2.2 C 96 % 1015.2 mbar 0.00 mm 3.0 km/h SW 216 0 min 0.0 UV-I 16 W/m 2.2 C 3.2 km/h
16.12.2017 16:06 2.2 C 96 % 1015.2 mbar 0.00 mm 3.8 km/h SW 216 0 min 0.0 UV-I 18 W/m 2.2 C 4.8 km/h
16.12.2017 16:04 2.2 C 96 % 1015.2 mbar 0.00 mm 2.5 km/h S-SW 202 0 min 0.0 UV-I 19 W/m 2.2 C 4.8 km/h
16.12.2017 16:02 2.2 C 96 % 1015.3 mbar 0.00 mm 1.3 km/h S-SW 202 0 min 0.0 UV-I 21 W/m 2.2 C 3.2 km/h
16.12.2017 16:00 2.2 C 95 % 1015.3 mbar 0.00 mm 4.6 km/h S-SW 202 0 min 0.0 UV-I 23 W/m 2.2 C 6.4 km/h
16.12.2017 15:58 2.2 C 95 % 1015.3 mbar 0.00 mm 4.7 km/h S-SW 205 0 min 0.0 UV-I 23 W/m 2.2 C 6.4 km/h
16.12.2017 15:56 2.2 C 96 % 1015.3 mbar 0.00 mm 0.2 km/h W 261 0 min 0.0 UV-I 21 W/m 2.2 C 3.2 km/h
16.12.2017 15:54 2.2 C 96 % 1015.2 mbar 0.00 mm 0.0 km/h W 261 0 min 0.0 UV-I 21 W/m 2.2 C 0.0 km/h
16.12.2017 15:52 2.2 C 95 % 1015.2 mbar 0.00 mm 0.0 km/h W 261 0 min 0.0 UV-I 23 W/m 2.2 C 0.0 km/h
16.12.2017 15:50 2.2 C 95 % 1015.2 mbar 0.00 mm 0.2 km/h W 261 0 min 0.0 UV-I 23 W/m 2.2 C 3.2 km/h
16.12.2017 15:48 2.2 C 95 % 1015.3 mbar 0.00 mm 2.2 km/h W 261 0 min 0.0 UV-I 25 W/m 2.2 C 4.8 km/h
16.12.2017 15:46 2.2 C 95 % 1015.3 mbar 0.00 mm 4.3 km/h W 261 0 min 0.0 UV-I 26 W/m 2.2 C 6.4 km/h
16.12.2017 15:44 2.2 C 95 % 1015.2 mbar 0.00 mm 3.0 km/h W 261 0 min 0.0 UV-I 28 W/m 2.2 C 4.8 km/h
16.12.2017 15:42 2.2 C 95 % 1015.2 mbar 0.00 mm 0.0 km/h SW 236 0 min 0.0 UV-I 32 W/m 2.2 C 0.0 km/h
16.12.2017 15:40 2.2 C 95 % 1015.1 mbar 0.00 mm 0.0 km/h SW 232 0 min 0.0 UV-I 35 W/m 2.2 C 0.0 km/h
16.12.2017 15:38 2.2 C 95 % 1015.1 mbar 0.00 mm 0.0 km/h SW 232 0 min 0.0 UV-I 39 W/m 2.2 C 0.0 km/h
16.12.2017 15:36 2.2 C 95 % 1015.1 mbar 0.00 mm 0.0 km/h SW 232 0 min 0.0 UV-I 44 W/m 2.2 C 0.0 km/h
16.12.2017 15:34 2.2 C 95 % 1015.1 mbar 0.00 mm 0.0 km/h SW 232 0 min 0.0 UV-I 40 W/m 2.2 C 0.0 km/h
16.12.2017 15:32 2.2 C 95 % 1015.0 mbar 0.00 mm 0.0 km/h SW 232 0 min 0.0 UV-I 40 W/m 2.2 C 0.0 km/h
16.12.2017 15:30 2.2 C 95 % 1015.0 mbar 0.00 mm 0.0 km/h SW 232 0 min 0.0 UV-I 39 W/m 2.2 C 0.0 km/h
16.12.2017 15:28 2.2 C 95 % 1015.0 mbar 0.00 mm 0.0 km/h SW 232 0 min 0.0 UV-I 37 W/m 2.2 C 0.0 km/h
16.12.2017 15:26 2.2 C 95 % 1014.9 mbar 0.00 mm 0.0 km/h SW 232 0 min 0.0 UV-I 33 W/m 2.2 C 0.0 km/h
16.12.2017 15:24 2.2 C 95 % 1014.9 mbar 0.00 mm 0.0 km/h SW 232 0 min 0.0 UV-I 33 W/m 2.2 C 1.6 km/h
16.12.2017 15:22 2.2 C 95 % 1014.9 mbar 0.00 mm 2.2 km/h SW 232 0 min 0.0 UV-I 26 W/m 2.2 C 3.2 km/h
16.12.2017 15:20 2.2 C 95 % 1014.9 mbar 0.00 mm 2.4 km/h SW 232 0 min 0.0 UV-I 21 W/m 2.2 C 3.2 km/h
16.12.2017 15:18 2.2 C 95 % 1014.9 mbar 0.00 mm 0.8 km/h SW 232 0 min 0.0 UV-I 26 W/m 2.2 C 4.8 km/h
16.12.2017 15:16 2.2 C 95 % 1014.8 mbar 0.00 mm 0.0 km/h SW 232 0 min 0.0 UV-I 28 W/m 2.2 C 0.0 km/h
16.12.2017 15:14 2.2 C 95 % 1014.8 mbar 0.00 mm 2.3 km/h SW 232 0 min 0.0 UV-I 30 W/m 2.2 C 4.8 km/h
16.12.2017 15:12 2.2 C 95 % 1014.8 mbar 0.00 mm 4.5 km/h SW 232 0 min 0.0 UV-I 28 W/m 2.2 C 4.8 km/h
16.12.2017 15:10 2.2 C 95 % 1014.8 mbar 0.00 mm 3.4 km/h SW 232 0 min 0.0 UV-I 28 W/m 2.2 C 6.4 km/h
16.12.2017 15:08 2.2 C 95 % 1014.8 mbar 0.00 mm 1.4 km/h SW 232 0 min 0.0 UV-I 30 W/m 2.2 C 4.8 km/h
16.12.2017 15:06 2.2 C 95 % 1014.7 mbar 0.00 mm 1.4 km/h SW 232 0 min 0.0 UV-I 32 W/m 2.2 C 3.2 km/h
16.12.2017 15:04 2.2 C 95 % 1014.8 mbar 0.00 mm 3.6 km/h SW 232 0 min 0.0 UV-I 32 W/m 2.2 C 4.8 km/h
16.12.2017 15:02 2.2 C 95 % 1014.8 mbar 0.00 mm 2.8 km/h SW 232 0 min 0.0 UV-I 33 W/m 2.2 C 4.8 km/h
16.12.2017 15:00 2.1 C 95 % 1014.6 mbar 0.00 mm 2.9 km/h SW 232 0 min 0.0 UV-I 33 W/m 2.1 C 3.2 km/h
16.12.2017 14:58 2.1 C 95 % 1014.7 mbar 0.00 mm 4.4 km/h SW 232 0 min 0.0 UV-I 35 W/m 2.1 C 6.4 km/h
16.12.2017 14:56 2.1 C 95 % 1014.6 mbar 0.00 mm 0.7 km/h SW 232 0 min 0.0 UV-I 35 W/m 2.1 C 6.4 km/h
16.12.2017 14:54 2.1 C 95 % 1014.5 mbar 0.00 mm 0.0 km/h NW 326 0 min 0.0 UV-I 35 W/m 2.1 C 0.0 km/h
16.12.2017 14:52 2.1 C 95 % 1014.4 mbar 0.00 mm 0.0 km/h NW 326 0 min 0.0 UV-I 37 W/m 2.1 C 0.0 km/h
16.12.2017 14:50 2.1 C 95 % 1014.4 mbar 0.00 mm 0.0 km/h NW 326 0 min 0.0 UV-I 39 W/m 2.1 C 0.0 km/h
16.12.2017 14:48 2.1 C 95 % 1014.4 mbar 0.00 mm 0.0 km/h NW 325 0 min 0.0 UV-I 39 W/m 2.1 C 0.0 km/h
16.12.2017 14:46 2.1 C 95 % 1014.4 mbar 0.00 mm 0.9 km/h NW 325 0 min 0.0 UV-I 40 W/m 2.1 C 3.2 km/h
16.12.2017 14:44 2.1 C 95 % 1014.4 mbar 0.00 mm 1.9 km/h NW 325 0 min 0.0 UV-I 40 W/m 2.1 C 3.2 km/h
16.12.2017 14:42 2.1 C 95 % 1014.4 mbar 0.00 mm 3.0 km/h N 359 0 min 0.0 UV-I 40 W/m 2.1 C 4.8 km/h
16.12.2017 14:40 2.1 C 95 % 1014.3 mbar 0.00 mm 3.5 km/h N 2 0 min 0.0 UV-I 40 W/m 2.1 C 4.8 km/h
16.12.2017 14:38 2.1 C 95 % 1014.3 mbar 0.00 mm 2.2 km/h N 6 0 min 0.0 UV-I 42 W/m 2.1 C 3.2 km/h
16.12.2017 14:36 2.1 C 95 % 1014.3 mbar 0.00 mm 3.5 km/h N 6 0 min 0.0 UV-I 44 W/m 2.1 C 4.8 km/h
16.12.2017 14:34 2.1 C 95 % 1014.2 mbar 0.00 mm 1.7 km/h N 4 0 min 0.0 UV-I 46 W/m 2.1 C 3.2 km/h
16.12.2017 14:32 2.1 C 95 % 1014.2 mbar 0.00 mm 0.3 km/h N 4 0 min 0.0 UV-I 49 W/m 2.1 C 1.6 km/h
16.12.2017 14:30 2.1 C 95 % 1014.2 mbar 0.00 mm 0.7 km/h N 4 0 min 0.0 UV-I 51 W/m 2.1 C 3.2 km/h
16.12.2017 14:28 2.1 C 95 % 1014.2 mbar 0.00 mm 3.1 km/h N 4 0 min 0.0 UV-I 51 W/m 2.1 C 4.8 km/h
16.12.2017 14:26 2.2 C 95 % 1014.2 mbar 0.00 mm 1.8 km/h N-NO 17 0 min 0.0 UV-I 53 W/m 2.2 C 4.8 km/h
16.12.2017 14:24 2.2 C 95 % 1014.2 mbar 0.00 mm 2.1 km/h N-NO 19 0 min 0.0 UV-I 51 W/m 2.2 C 3.2 km/h
16.12.2017 14:22 2.2 C 95 % 1014.2 mbar 0.00 mm 1.4 km/h N-NO 25 0 min 0.0 UV-I 51 W/m 2.2 C 3.2 km/h
16.12.2017 14:20 2.2 C 95 % 1014.1 mbar 0.00 mm 1.9 km/h N-NO 25 0 min 0.0 UV-I 53 W/m 2.2 C 3.2 km/h
16.12.2017 14:18 2.2 C 95 % 1014.0 mbar 0.00 mm 0.4 km/h N-NO 25 0 min 0.0 UV-I 58 W/m 2.2 C 3.2 km/h
16.12.2017 14:16 2.2 C 95 % 1014.0 mbar 0.00 mm 0.3 km/h N-NO 25 0 min 0.0 UV-I 62 W/m 2.2 C 1.6 km/h
16.12.2017 14:14 2.2 C 96 % 1014.0 mbar 0.00 mm 2.5 km/h N-NO 25 0 min 0.0 UV-I 69 W/m 2.2 C 4.8 km/h
16.12.2017 14:12 2.1 C 95 % 1013.9 mbar 0.00 mm 2.0 km/h N-NW 343 0 min 0.0 UV-I 70 W/m 2.1 C 3.2 km/h
16.12.2017 14:10 2.1 C 95 % 1013.9 mbar 0.00 mm 0.0 km/h N-NW 340 0 min 0.0 UV-I 72 W/m 2.1 C 0.0 km/h
16.12.2017 14:08 2.1 C 95 % 1013.9 mbar 0.00 mm 1.4 km/h N-NW 340 0 min 0.0 UV-I 72 W/m 2.1 C 3.2 km/h
16.12.2017 14:06 2.1 C 95 % 1013.9 mbar 0.00 mm 2.8 km/h N-NW 340 0 min 0.0 UV-I 70 W/m 2.1 C 6.4 km/h
16.12.2017 14:04 2.1 C 95 % 1013.7 mbar 0.00 mm 3.1 km/h N-NW 329 0 min 0.0 UV-I 67 W/m 2.1 C 3.2 km/h
16.12.2017 14:02 2.0 C 95 % 1013.7 mbar 0.00 mm 2.9 km/h N-NW 328 0 min 0.0 UV-I 62 W/m 2.0 C 4.8 km/h
16.12.2017 14:00 2.0 C 95 % 1013.7 mbar 0.00 mm 0.3 km/h N 8 0 min 0.0 UV-I 58 W/m 2.0 C 4.8 km/h
16.12.2017 13:58 2.0 C 95 % 1013.8 mbar 0.00 mm 0.0 km/h O-NO 66 0 min 0.0 UV-I 56 W/m 2.0 C 0.0 km/h
16.12.2017 13:56 2.0 C 95 % 1013.7 mbar 0.00 mm 0.0 km/h O-NO 66 0 min 0.0 UV-I 56 W/m 2.0 C 0.0 km/h
16.12.2017 13:54 2.0 C 95 % 1013.7 mbar 0.00 mm 0.0 km/h O-NO 66 0 min 0.0 UV-I 56 W/m 2.0 C 0.0 km/h
16.12.2017 13:52 2.0 C 95 % 1013.7 mbar 0.00 mm 0.0 km/h O-NO 66 0 min 0.0 UV-I 56 W/m 2.0 C 0.0 km/h
16.12.2017 13:50 2.0 C 95 % 1013.6 mbar 0.00 mm 0.0 km/h O-NO 66 0 min 0.0 UV-I 54 W/m 2.0 C 0.0 km/h
16.12.2017 13:48 1.9 C 95 % 1013.6 mbar 0.00 mm 0.4 km/h O-NO 66 0 min 0.0 UV-I 53 W/m 1.9 C 1.6 km/h
16.12.2017 13:46 2.0 C 95 % 1013.6 mbar 0.00 mm 2.2 km/h O-NO 66 0 min 0.0 UV-I 49 W/m 2.0 C 3.2 km/h
16.12.2017 13:44 2.0 C 95 % 1013.6 mbar 0.00 mm 2.2 km/h O-NO 66 0 min 0.0 UV-I 47 W/m 2.0 C 3.2 km/h
16.12.2017 13:42 2.0 C 95 % 1013.6 mbar 0.00 mm 0.7 km/h S-SO 154 0 min 0.0 UV-I 47 W/m 2.0 C 3.2 km/h
16.12.2017 13:40 2.0 C 95 % 1013.6 mbar 0.00 mm 0.4 km/h S-SO 154 0 min 0.0 UV-I 49 W/m 2.0 C 3.2 km/h
16.12.2017 13:38 2.0 C 95 % 1013.6 mbar 0.00 mm 0.8 km/h S-SO 154 0 min 0.0 UV-I 53 W/m 2.0 C 3.2 km/h
16.12.2017 13:36 2.0 C 95 % 1013.6 mbar 0.00 mm 0.0 km/h S-SO 154 0 min 0.0 UV-I 58 W/m 2.0 C 0.0 km/h
16.12.2017 13:34 1.9 C 95 % 1013.4 mbar 0.00 mm 1.5 km/h S-SO 154 0 min 0.0 UV-I 58 W/m 1.9 C 3.2 km/h
16.12.2017 13:32 1.9 C 95 % 1013.5 mbar 0.00 mm 1.6 km/h S-SO 154 0 min 0.0 UV-I 58 W/m 1.9 C 3.2 km/h
16.12.2017 13:30 1.9 C 95 % 1013.5 mbar 0.00 mm 0.0 km/h S-SO 154 0 min 0.0 UV-I 54 W/m 1.9 C 0.0 km/h
16.12.2017 13:28 1.9 C 95 % 1013.5 mbar 0.00 mm 1.6 km/h S-SO 154 0 min 0.0 UV-I 51 W/m 1.9 C 3.2 km/h
16.12.2017 13:26 1.9 C 95 % 1013.5 mbar 0.00 mm 3.1 km/h S-SO 154 0 min 0.0 UV-I 49 W/m 1.9 C 4.8 km/h
16.12.2017 13:24 1.9 C 95 % 1013.5 mbar 0.00 mm 3.5 km/h O 97 0 min 0.0 UV-I 49 W/m 1.9 C 4.8 km/h
16.12.2017 13:22 1.9 C 95 % 1013.4 mbar 0.00 mm 3.6 km/h NO 40 0 min 0.0 UV-I 51 W/m 1.9 C 4.8 km/h
16.12.2017 13:20 1.9 C 95 % 1013.3 mbar 0.00 mm 0.0 km/h N 360 0 min 0.0 UV-I 53 W/m 1.9 C 0.0 km/h
16.12.2017 13:18 1.9 C 95 % 1013.4 mbar 0.00 mm 0.0 km/h W-NW 301 0 min 0.0 UV-I 53 W/m 1.9 C 0.0 km/h
16.12.2017 13:16 1.9 C 95 % 1013.4 mbar 0.00 mm 0.0 km/h W-NW 301 0 min 0.0 UV-I 51 W/m 1.9 C 0.0 km/h
16.12.2017 13:14 1.9 C 95 % 1013.3 mbar 0.00 mm 0.0 km/h W-NW 301 0 min 0.0 UV-I 51 W/m 1.9 C 0.0 km/h
16.12.2017 13:12 2.0 C 95 % 1013.3 mbar 0.20 mm 0.0 km/h W-NW 301 0 min 0.0 UV-I 47 W/m 2.0 C 0.0 km/h
16.12.2017 13:10 2.0 C 95 % 1013.3 mbar 0.00 mm 0.0 km/h W-NW 301 0 min 0.0 UV-I 44 W/m 2.0 C 0.0 km/h
16.12.2017 13:08 1.9 C 95 % 1013.3 mbar 0.00 mm 0.0 km/h W-NW 301 0 min 0.0 UV-I 42 W/m 1.9 C 0.0 km/h
16.12.2017 13:06 1.9 C 95 % 1013.2 mbar 0.00 mm 0.0 km/h W-NW 301 0 min 0.0 UV-I 44 W/m 1.9 C 0.0 km/h
16.12.2017 13:04 2.0 C 95 % 1013.1 mbar 0.00 mm 0.0 km/h W-NW 301 0 min 0.0 UV-I 46 W/m 2.0 C 0.0 km/h
16.12.2017 13:02 2.0 C 95 % 1013.2 mbar 0.00 mm 0.0 km/h W-NW 301 0 min 0.0 UV-I 44 W/m 2.0 C 0.0 km/h
16.12.2017 13:00 2.0 C 95 % 1013.2 mbar 0.00 mm 0.0 km/h W-NW 301 0 min 0.0 UV-I 44 W/m 2.0 C 0.0 km/h
16.12.2017 12:58 2.0 C 95 % 1013.1 mbar 0.00 mm 0.0 km/h W-NW 301 0 min 0.0 UV-I 44 W/m 2.0 C 0.0 km/h
16.12.2017 12:56 2.0 C 95 % 1013.1 mbar 0.00 mm 0.0 km/h W-NW 301 0 min 0.0 UV-I 44 W/m 2.0 C 0.0 km/h
16.12.2017 12:54 2.0 C 95 % 1013.0 mbar 0.00 mm 0.0 km/h W-NW 301 0 min 0.0 UV-I 46 W/m 2.0 C 0.0 km/h
16.12.2017 12:52 2.1 C 95 % 1013.0 mbar 0.00 mm 0.0 km/h W-NW 301 0 min 0.0 UV-I 49 W/m 2.1 C 0.0 km/h
16.12.2017 12:50 2.1 C 95 % 1013.0 mbar 0.00 mm 0.0 km/h W-NW 301 0 min 0.0 UV-I 49 W/m 2.1 C 0.0 km/h
16.12.2017 12:48 2.1 C 95 % 1012.9 mbar 0.00 mm 0.0 km/h N 357 0 min 0.0 UV-I 44 W/m 2.1 C 0.0 km/h
16.12.2017 12:46 2.1 C 95 % 1013.0 mbar 0.00 mm 0.0 km/h N 357 0 min 0.0 UV-I 37 W/m 2.1 C 0.0 km/h
16.12.2017 12:44 2.1 C 95 % 1012.9 mbar 0.20 mm 0.0 km/h N 357 0 min 0.0 UV-I 35 W/m 2.1 C 0.0 km/h
16.12.2017 12:42 2.1 C 95 % 1012.9 mbar 0.00 mm 0.0 km/h N 357 0 min 0.0 UV-I 37 W/m 2.1 C 0.0 km/h
16.12.2017 12:40 2.1 C 95 % 1012.9 mbar 0.00 mm 0.0 km/h N 357 0 min 0.0 UV-I 37 W/m 2.1 C 0.0 km/h
16.12.2017 12:38 2.1 C 95 % 1012.8 mbar 0.00 mm 0.0 km/h N 357 0 min 0.0 UV-I 37 W/m 2.1 C 0.0 km/h
16.12.2017 12:36 2.1 C 95 % 1012.9 mbar 0.00 mm 0.0 km/h N 357 0 min 0.0 UV-I 37 W/m 2.1 C 0.0 km/h
16.12.2017 12:34 2.1 C 95 % 1012.9 mbar 0.00 mm 0.0 km/h N 357 0 min 0.0 UV-I 39 W/m 2.1 C 0.0 km/h
16.12.2017 12:32 2.1 C 95 % 1012.8 mbar 0.00 mm 0.0 km/h N 357 0 min 0.0 UV-I 39 W/m 2.1 C 0.0 km/h
16.12.2017 12:30 2.1 C 95 % 1012.8 mbar 0.00 mm 0.0 km/h N 357 0 min 0.0 UV-I 40 W/m 2.1 C 0.0 km/h
16.12.2017 12:28 2.1 C 95 % 1012.7 mbar 0.00 mm 0.0 km/h N 357 0 min 0.0 UV-I 42 W/m 2.1 C 0.0 km/h
16.12.2017 12:26 2.1 C 95 % 1012.7 mbar 0.00 mm 0.0 km/h N 357 0 min 0.0 UV-I 40 W/m 2.1 C 0.0 km/h
16.12.2017 12:24 2.1 C 95 % 1012.7 mbar 0.00 mm 0.0 km/h N 357 0 min 0.0 UV-I 40 W/m 2.1 C 0.0 km/h
16.12.2017 12:22 2.1 C 95 % 1012.7 mbar 0.00 mm 0.0 km/h N 355 0 min 0.0 UV-I 42 W/m 2.1 C 0.0 km/h
16.12.2017 12:20 2.1 C 95 % 1012.6 mbar 0.00 mm 0.0 km/h N-NW 348 0 min 0.0 UV-I 42 W/m 2.1 C 0.0 km/h
16.12.2017 12:18 2.1 C 95 % 1012.6 mbar 0.00 mm 0.0 km/h N-NW 348 0 min 0.0 UV-I 42 W/m 2.1 C 0.0 km/h
16.12.2017 12:16 2.1 C 95 % 1012.6 mbar 0.00 mm 0.0 km/h N-NW 348 0 min 0.0 UV-I 42 W/m 2.1 C 0.0 km/h
16.12.2017 12:14 2.1 C 95 % 1012.6 mbar 0.00 mm 0.0 km/h N-NW 348 0 min 0.0 UV-I 42 W/m 2.1 C 0.0 km/h
16.12.2017 12:12 2.1 C 95 % 1012.5 mbar 0.00 mm 0.0 km/h N-NW 348 0 min 0.0 UV-I 46 W/m 2.1 C 0.0 km/h
16.12.2017 12:10 2.1 C 95 % 1012.5 mbar 0.00 mm 0.0 km/h N-NW 348 0 min 0.0 UV-I 47 W/m 2.1 C 0.0 km/h
16.12.2017 12:08 2.1 C 95 % 1012.5 mbar 0.00 mm 0.0 km/h N-NW 348 0 min 0.0 UV-I 51 W/m 2.1 C 0.0 km/h
16.12.2017 12:06 2.1 C 95 % 1012.5 mbar 0.00 mm 0.0 km/h N-NW 348 0 min 0.0 UV-I 58 W/m 2.1 C 0.0 km/h
16.12.2017 12:04 2.1 C 95 % 1012.5 mbar 0.00 mm 0.0 km/h N 349 0 min 0.0 UV-I 62 W/m 2.1 C 0.0 km/h
16.12.2017 12:02 2.1 C 95 % 1012.5 mbar 0.00 mm 0.0 km/h N 349 0 min 0.0 UV-I 67 W/m 2.1 C 0.0 km/h
16.12.2017 12:00 2.1 C 95 % 1012.5 mbar 0.20 mm 0.0 km/h N 349 0 min 0.0 UV-I 70 W/m 2.1 C 0.0 km/h
16.12.2017 11:58 2.1 C 95 % 1012.4 mbar 0.00 mm 0.0 km/h N 349 0 min 0.0 UV-I 76 W/m 2.1 C 0.0 km/h
16.12.2017 11:56 2.1 C 95 % 1012.4 mbar 0.00 mm 0.0 km/h N 351 0 min 0.0 UV-I 81 W/m 2.1 C 0.0 km/h
16.12.2017 11:54 2.1 C 95 % 1012.4 mbar 0.00 mm 0.0 km/h N 351 0 min 0.0 UV-I 86 W/m 2.1 C 0.0 km/h
16.12.2017 11:52 2.1 C 95 % 1012.4 mbar 0.00 mm 0.0 km/h N 351 0 min 0.0 UV-I 86 W/m 2.1 C 0.0 km/h
16.12.2017 11:50 2.0 C 95 % 1012.4 mbar 0.00 mm 0.0 km/h N 351 0 min 0.0 UV-I 90 W/m 2.0 C 0.0 km/h
16.12.2017 11:48 2.0 C 95 % 1012.3 mbar 0.00 mm 0.0 km/h N 351 0 min 0.0 UV-I 91 W/m 2.0 C 0.0 km/h
16.12.2017 11:46 2.0 C 95 % 1012.3 mbar 0.20 mm 0.0 km/h N 351 0 min 0.0 UV-I 98 W/m 2.0 C 0.0 km/h
16.12.2017 11:44 1.9 C 95 % 1012.3 mbar 0.00 mm 2.7 km/h N 351 0 min 0.0 UV-I 107 W/m 1.9 C 6.4 km/h
16.12.2017 11:42 1.9 C 95 % 1012.2 mbar 0.00 mm 3.0 km/h N 351 0 min 0.0 UV-I 107 W/m 1.9 C 6.4 km/h
16.12.2017 11:40 1.9 C 96 % 1012.2 mbar 0.00 mm 1.9 km/h N 351 0 min 0.0 UV-I 107 W/m 1.9 C 3.2 km/h
16.12.2017 11:38 1.8 C 96 % 1012.2 mbar 0.00 mm 1.7 km/h N 359 0 min 0.0 UV-I 107 W/m 1.8 C 4.8 km/h
16.12.2017 11:36 1.8 C 95 % 1012.2 mbar 0.00 mm 0.0 km/h N 357 0 min 0.0 UV-I 107 W/m 1.8 C 1.6 km/h
16.12.2017 11:34 1.8 C 95 % 1012.1 mbar 0.00 mm 0.0 km/h N 357 0 min 0.0 UV-I 107 W/m 1.8 C 0.0 km/h
16.12.2017 11:32 1.8 C 95 % 1012.2 mbar 0.00 mm 1.6 km/h N 357 0 min 0.0 UV-I 105 W/m 1.8 C 3.2 km/h
16.12.2017 11:30 1.8 C 95 % 1012.1 mbar 0.00 mm 2.2 km/h N 357 0 min 0.0 UV-I 105 W/m 1.8 C 4.8 km/h
16.12.2017 11:28 1.7 C 95 % 1012.2 mbar 0.00 mm 3.7 km/h N 357 0 min 0.0 UV-I 104 W/m 1.7 C 6.4 km/h
16.12.2017 11:26 1.7 C 95 % 1012.2 mbar 0.00 mm 5.0 km/h N 355 0 min 0.0 UV-I 100 W/m 1.7 C 8.0 km/h
16.12.2017 11:24 1.7 C 95 % 1012.2 mbar 0.00 mm 4.4 km/h N-NW 343 0 min 0.0 UV-I 91 W/m 1.7 C 6.4 km/h
16.12.2017 11:22 1.7 C 95 % 1012.2 mbar 0.20 mm 2.9 km/h N-NW 337 0 min 0.0 UV-I 83 W/m 1.7 C 4.8 km/h
16.12.2017 11:20 1.7 C 96 % 1012.2 mbar 0.00 mm 1.1 km/h NW 306 0 min 0.0 UV-I 83 W/m 1.7 C 4.8 km/h
16.12.2017 11:18 1.7 C 96 % 1012.2 mbar 0.00 mm 0.0 km/h W-NW 299 0 min 0.0 UV-I 79 W/m 1.7 C 0.0 km/h
16.12.2017 11:16 1.7 C 96 % 1012.1 mbar 0.00 mm 0.1 km/h W-NW 299 0 min 0.0 UV-I 77 W/m 1.7 C 1.6 km/h
16.12.2017 11:14 1.6 C 96 % 1012.1 mbar 0.00 mm 0.3 km/h W-NW 299 0 min 0.0 UV-I 77 W/m 1.6 C 1.6 km/h
16.12.2017 11:12 1.6 C 96 % 1012.1 mbar 0.00 mm 0.9 km/h W-NW 299 0 min 0.0 UV-I 74 W/m 1.6 C 3.2 km/h
16.12.2017 11:10 1.6 C 96 % 1012.0 mbar 0.00 mm 1.5 km/h W-NW 298 0 min 0.0 UV-I 70 W/m 1.6 C 4.8 km/h
16.12.2017 11:08 1.6 C 96 % 1012.0 mbar 0.00 mm 1.2 km/h W-NW 299 0 min 0.0 UV-I 63 W/m 1.6 C 3.2 km/h
16.12.2017 11:06 1.6 C 96 % 1012.0 mbar 0.00 mm 3.2 km/h W 276 0 min 0.0 UV-I 60 W/m 1.6 C 4.8 km/h
16.12.2017 11:04 1.6 C 96 % 1012.0 mbar 0.00 mm 1.2 km/h SW 221 0 min 0.0 UV-I 60 W/m 1.6 C 3.2 km/h
16.12.2017 11:02 1.6 C 96 % 1012.0 mbar 0.00 mm 0.8 km/h SW 221 0 min 0.0 UV-I 63 W/m 1.6 C 3.2 km/h
16.12.2017 11:00 1.6 C 96 % 1011.9 mbar 0.00 mm 1.6 km/h SW 221 0 min 0.0 UV-I 63 W/m 1.6 C 3.2 km/h
16.12.2017 10:58 1.6 C 96 % 1011.9 mbar 0.00 mm 1.9 km/h SW 221 0 min 0.0 UV-I 62 W/m 1.6 C 3.2 km/h
16.12.2017 10:56 1.6 C 96 % 1011.9 mbar 0.00 mm 2.2 km/h SW 231 0 min 0.0 UV-I 54 W/m 1.6 C 3.2 km/h
16.12.2017 10:54 1.6 C 96 % 1011.9 mbar 0.20 mm 3.4 km/h SW 231 0 min 0.0 UV-I 47 W/m 1.6 C 4.8 km/h
16.12.2017 10:52 1.6 C 96 % 1011.8 mbar 0.00 mm 1.0 km/h SW 231 0 min 0.0 UV-I 46 W/m 1.6 C 3.2 km/h
16.12.2017 10:50 1.6 C 96 % 1011.8 mbar 0.00 mm 3.2 km/h SW 231 0 min 0.0 UV-I 46 W/m 1.6 C 4.8 km/h
16.12.2017 10:48 1.5 C 96 % 1011.7 mbar 0.00 mm 3.1 km/h SW 231 0 min 0.0 UV-I 47 W/m 1.5 C 4.8 km/h
16.12.2017 10:46 1.5 C 96 % 1011.7 mbar 0.00 mm 3.7 km/h W 261 0 min 0.0 UV-I 51 W/m 1.5 C 4.8 km/h
16.12.2017 10:44 1.5 C 96 % 1011.6 mbar 0.00 mm 2.5 km/h W 262 0 min 0.0 UV-I 49 W/m 1.5 C 6.4 km/h
16.12.2017 10:42 1.4 C 96 % 1011.6 mbar 0.00 mm 4.6 km/h N-NW 344 0 min 0.0 UV-I 49 W/m 1.4 C 9.7 km/h
16.12.2017 10:40 1.4 C 96 % 1011.5 mbar 0.00 mm 4.6 km/h N-NW 341 0 min 0.0 UV-I 51 W/m 1.4 C 9.7 km/h
16.12.2017 10:38 1.4 C 96 % 1011.5 mbar 0.00 mm 6.7 km/h N-NW 337 0 min 0.0 UV-I 53 W/m 1.1 C 11.3 km/h
16.12.2017 10:36 1.4 C 96 % 1011.4 mbar 0.00 mm 5.8 km/h N 353 0 min 0.0 UV-I 51 W/m 1.4 C 8.0 km/h
16.12.2017 10:34 1.4 C 96 % 1011.4 mbar 0.00 mm 3.9 km/h N 355 0 min 0.0 UV-I 49 W/m 1.4 C 8.0 km/h
16.12.2017 10:32 1.4 C 96 % 1011.3 mbar 0.00 mm 4.0 km/h NW 319 0 min 0.0 UV-I 53 W/m 1.4 C 4.8 km/h
16.12.2017 10:30 1.4 C 96 % 1011.3 mbar 0.00 mm 1.7 km/h S-SW 195 0 min 0.0 UV-I 56 W/m 1.4 C 3.2 km/h
16.12.2017 10:28 1.3 C 96 % 1011.2 mbar 0.00 mm 2.6 km/h S 180 0 min 0.0 UV-I 58 W/m 1.3 C 4.8 km/h
16.12.2017 10:26 1.3 C 96 % 1011.2 mbar 0.00 mm 3.2 km/h S-SO 152 0 min 0.0 UV-I 51 W/m 1.3 C 8.0 km/h
16.12.2017 10:24 1.3 C 96 % 1011.2 mbar 0.00 mm 1.5 km/h S-SO 161 0 min 0.0 UV-I 49 W/m 1.3 C 3.2 km/h
16.12.2017 10:22 1.2 C 96 % 1011.1 mbar 0.00 mm 1.6 km/h S-SO 158 0 min 0.0 UV-I 47 W/m 1.2 C 3.2 km/h
16.12.2017 10:20 1.2 C 96 % 1011.1 mbar 0.00 mm 3.4 km/h S-SO 158 0 min 0.0 UV-I 40 W/m 1.2 C 6.4 km/h
16.12.2017 10:18 1.1 C 96 % 1011.0 mbar 0.00 mm 3.2 km/h O-SO 103 0 min 0.0 UV-I 37 W/m 1.1 C 4.8 km/h
16.12.2017 10:16 1.0 C 96 % 1010.9 mbar 0.00 mm 2.7 km/h O-SO 106 0 min 0.0 UV-I 28 W/m 1.0 C 4.8 km/h
16.12.2017 10:14 0.9 C 96 % 1010.9 mbar 0.00 mm 2.5 km/h S-SO 153 0 min 0.0 UV-I 18 W/m 0.9 C 3.2 km/h
16.12.2017 10:12 0.9 C 96 % 1010.9 mbar 0.00 mm 3.3 km/h S-SO 158 0 min 0.0 UV-I 16 W/m 0.9 C 4.8 km/h
16.12.2017 10:10 0.9 C 96 % 1010.9 mbar 0.00 mm 3.5 km/h S-SW 210 0 min 0.0 UV-I 14 W/m 0.9 C 6.4 km/h
16.12.2017 10:08 0.8 C 96 % 1010.8 mbar 0.00 mm 2.5 km/h W-SW 243 0 min 0.0 UV-I 12 W/m 0.8 C 4.8 km/h
16.12.2017 10:06 0.8 C 96 % 1010.7 mbar 0.00 mm 2.9 km/h SW 220 0 min 0.0 UV-I 14 W/m 0.8 C 4.8 km/h
16.12.2017 10:04 0.8 C 96 % 1010.7 mbar 0.00 mm 0.8 km/h S-SW 211 0 min 0.0 UV-I 16 W/m 0.8 C 3.2 km/h
16.12.2017 10:02 0.8 C 96 % 1010.6 mbar 0.00 mm 1.7 km/h S-SW 211 0 min 0.0 UV-I 18 W/m 0.8 C 3.2 km/h
16.12.2017 10:00 0.7 C 96 % 1010.6 mbar 0.00 mm 4.1 km/h S-SW 211 0 min 0.0 UV-I 19 W/m 0.7 C 6.4 km/h
16.12.2017 09:58 0.7 C 96 % 1010.6 mbar 0.00 mm 3.7 km/h SW 232 0 min 0.0 UV-I 21 W/m 0.7 C 4.8 km/h
16.12.2017 09:56 0.7 C 96 % 1010.4 mbar 0.00 mm 2.6 km/h SW 235 0 min 0.0 UV-I 21 W/m 0.7 C 4.8 km/h
16.12.2017 09:54 0.7 C 96 % 1010.5 mbar 0.00 mm 3.4 km/h SW 235 0 min 0.0 UV-I 21 W/m 0.7 C 4.8 km/h
16.12.2017 09:52 0.6 C 96 % 1010.4 mbar 0.00 mm 4.5 km/h SW 235 0 min 0.0 UV-I 21 W/m 0.6 C 6.4 km/h
16.12.2017 09:50 0.6 C 96 % 1010.4 mbar 0.00 mm 5.1 km/h SW 235 0 min 0.0 UV-I 21 W/m 0.6 C 6.4 km/h
16.12.2017 09:48 0.6 C 96 % 1010.3 mbar 0.00 mm 2.6 km/h SW 235 0 min 0.0 UV-I 21 W/m 0.6 C 4.8 km/h
16.12.2017 09:46 0.6 C 96 % 1010.3 mbar 0.00 mm 1.0 km/h SW 235 0 min 0.0 UV-I 23 W/m 0.6 C 3.2 km/h
16.12.2017 09:44 0.6 C 96 % 1010.3 mbar 0.00 mm 1.2 km/h SW 235 0 min 0.0 UV-I 21 W/m 0.6 C 3.2 km/h
16.12.2017 09:42 0.6 C 96 % 1010.3 mbar 0.00 mm 0.0 km/h SW 235 0 min 0.0 UV-I 19 W/m 0.6 C 0.0 km/h
16.12.2017 09:40 0.6 C 96 % 1010.2 mbar 0.00 mm 0.0 km/h SW 235 0 min 0.0 UV-I 19 W/m 0.6 C 0.0 km/h
16.12.2017 09:38 0.6 C 96 % 1010.2 mbar 0.00 mm 0.0 km/h SW 235 0 min 0.0 UV-I 19 W/m 0.6 C 0.0 km/h
16.12.2017 09:36 0.6 C 96 % 1010.2 mbar 0.00 mm 0.0 km/h SW 235 0 min 0.0 UV-I 18 W/m 0.6 C 0.0 km/h
16.12.2017 09:34 0.5 C 96 % 1010.2 mbar 0.00 mm 0.0 km/h SW 235 0 min 0.0 UV-I 18 W/m 0.5 C 0.0 km/h
16.12.2017 09:32 0.5 C 96 % 1010.1 mbar 0.00 mm 0.0 km/h SW 235 0 min 0.0 UV-I 16 W/m 0.5 C 0.0 km/h
16.12.2017 09:30 0.5 C 96 % 1010.0 mbar 0.00 mm 0.0 km/h SW 235 0 min 0.0 UV-I 16 W/m 0.5 C 0.0 km/h
16.12.2017 09:28 0.5 C 96 % 1010.1 mbar 0.00 mm 0.0 km/h SW 235 0 min 0.0 UV-I 14 W/m 0.5 C 0.0 km/h
16.12.2017 09:26 0.5 C 96 % 1010.0 mbar 0.00 mm 0.0 km/h SW 235 0 min 0.0 UV-I 14 W/m 0.5 C 0.0 km/h
16.12.2017 09:24 0.4 C 96 % 1010.0 mbar 0.00 mm 0.0 km/h SW 235 0 min 0.0 UV-I 14 W/m 0.4 C 0.0 km/h
16.12.2017 09:22 0.4 C 96 % 1009.9 mbar 0.00 mm 0.0 km/h SW 235 0 min 0.0 UV-I 12 W/m 0.4 C 0.0 km/h
16.12.2017 09:20 0.4 C 96 % 1009.9 mbar 0.00 mm 1.5 km/h SW 235 0 min 0.0 UV-I 11 W/m 0.4 C 3.2 km/h
16.12.2017 09:18 0.4 C 96 % 1010.0 mbar 0.00 mm 0.7 km/h SW 235 0 min 0.0 UV-I 11 W/m 0.4 C 3.2 km/h
16.12.2017 09:16 0.4 C 96 % 1009.9 mbar 0.00 mm 0.0 km/h SW 235 0 min 0.0 UV-I 11 W/m 0.4 C 0.0 km/h
16.12.2017 09:14 0.4 C 96 % 1009.9 mbar 0.00 mm 0.0 km/h SW 235 0 min 0.0 UV-I 11 W/m 0.4 C 0.0 km/h
16.12.2017 09:12 0.4 C 96 % 1009.9 mbar 0.00 mm 0.0 km/h SW 235 0 min 0.0 UV-I 11 W/m 0.4 C 0.0 km/h
16.12.2017 09:10 0.4 C 96 % 1009.9 mbar 0.00 mm 0.0 km/h SW 235 0 min 0.0 UV-I 11 W/m 0.4 C 0.0 km/h
16.12.2017 09:08 0.4 C 96 % 1009.8 mbar 0.00 mm 0.0 km/h SW 235 0 min 0.0 UV-I 11 W/m 0.4 C 0.0 km/h
16.12.2017 09:06 0.4 C 96 % 1009.9 mbar 0.00 mm 0.1 km/h SW 235 0 min 0.0 UV-I 9 W/m 0.4 C 1.6 km/h
16.12.2017 09:04 0.4 C 96 % 1009.8 mbar 0.00 mm 1.8 km/h SW 235 0 min 0.0 UV-I 9 W/m 0.4 C 3.2 km/h
16.12.2017 09:02 0.4 C 96 % 1009.8 mbar 0.00 mm 1.4 km/h SW 235 0 min 0.0 UV-I 9 W/m 0.4 C 3.2 km/h
16.12.2017 09:00 0.4 C 96 % 1009.7 mbar 0.00 mm 0.0 km/h SW 235 0 min 0.0 UV-I 11 W/m 0.4 C 0.0 km/h
16.12.2017 08:58 0.4 C 96 % 1009.7 mbar 0.00 mm 0.0 km/h SW 235 0 min 0.0 UV-I 11 W/m 0.4 C 1.6 km/h
16.12.2017 08:56 0.4 C 96 % 1009.6 mbar 0.00 mm 0.0 km/h SW 235 0 min 0.0 UV-I 11 W/m 0.4 C 0.0 km/h
16.12.2017 08:54 0.4 C 96 % 1009.5 mbar 0.00 mm 0.0 km/h SW 235 0 min 0.0 UV-I 9 W/m 0.4 C 0.0 km/h
16.12.2017 08:52 0.3 C 96 % 1009.5 mbar 0.00 mm 0.0 km/h SW 235 0 min 0.0 UV-I 7 W/m 0.3 C 0.0 km/h
16.12.2017 08:50 0.3 C 96 % 1009.5 mbar 0.00 mm 0.0 km/h SW 235 0 min 0.0 UV-I 7 W/m 0.3 C 0.0 km/h
16.12.2017 08:48 0.3 C 96 % 1009.5 mbar 0.00 mm 0.7 km/h SW 235 0 min 0.0 UV-I 7 W/m 0.3 C 3.2 km/h
16.12.2017 08:46 0.3 C 96 % 1009.4 mbar 0.00 mm 2.0 km/h SW 235 0 min 0.0 UV-I 7 W/m 0.3 C 3.2 km/h
16.12.2017 08:44 0.3 C 96 % 1009.4 mbar 0.00 mm 0.1 km/h SW 235 0 min 0.0 UV-I 5 W/m 0.3 C 1.6 km/h
16.12.2017 08:42 0.3 C 96 % 1009.4 mbar 0.00 mm 1.4 km/h SW 235 0 min 0.0 UV-I 5 W/m 0.3 C 3.2 km/h
16.12.2017 08:40 0.3 C 96 % 1009.4 mbar 0.00 mm 2.9 km/h SW 235 0 min 0.0 UV-I 5 W/m 0.3 C 4.8 km/h
16.12.2017 08:38 0.3 C 96 % 1009.4 mbar 0.00 mm 1.8 km/h SW 236 0 min 0.0 UV-I 0 W/m 0.3 C 3.2 km/h
16.12.2017 08:36 0.3 C 96 % 1009.3 mbar 0.00 mm 2.2 km/h SW 236 0 min 0.0 UV-I 0 W/m 0.3 C 3.2 km/h
16.12.2017 08:34 0.3 C 96 % 1009.3 mbar 0.00 mm 3.2 km/h SW 236 0 min 0.0 UV-I 0 W/m 0.3 C 4.8 km/h
16.12.2017 08:32 0.2 C 96 % 1009.3 mbar 0.00 mm 2.4 km/h W-SW 237 0 min 0.0 UV-I 0 W/m 0.2 C 3.2 km/h
16.12.2017 08:30 0.2 C 96 % 1009.3 mbar 0.00 mm 0.4 km/h W-SW 247 0 min 0.0 UV-I 0 W/m 0.2 C 3.2 km/h
16.12.2017 08:28 0.2 C 96 % 1009.3 mbar 0.00 mm 1.6 km/h W-SW 247 0 min 0.0 UV-I 0 W/m 0.2 C 3.2 km/h
16.12.2017 08:26 0.2 C 96 % 1009.2 mbar 0.00 mm 0.0 km/h W-SW 247 0 min 0.0 UV-I 0 W/m 0.2 C 0.0 km/h
16.12.2017 08:24 0.2 C 96 % 1009.2 mbar 0.00 mm 0.0 km/h W-SW 247 0 min 0.0 UV-I 0 W/m 0.2 C 0.0 km/h
16.12.2017 08:22 0.2 C 96 % 1009.1 mbar 0.00 mm 0.0 km/h W-SW 247 0 min 0.0 UV-I 0 W/m 0.2 C 0.0 km/h
16.12.2017 08:20 0.2 C 95 % 1009.0 mbar 0.00 mm 0.0 km/h W-SW 247 0 min 0.0 UV-I 0 W/m 0.2 C 0.0 km/h
16.12.2017 08:18 0.2 C 95 % 1008.9 mbar 0.00 mm 0.0 km/h W-SW 247 0 min 0.0 UV-I 0 W/m 0.2 C 0.0 km/h
16.12.2017 08:16 0.2 C 95 % 1009.0 mbar 0.00 mm 0.0 km/h W-SW 247 0 min 0.0 UV-I 0 W/m 0.2 C 0.0 km/h
16.12.2017 08:14 0.2 C 95 % 1009.0 mbar 0.00 mm 0.0 km/h W-SW 247 0 min 0.0 UV-I 0 W/m 0.2 C 0.0 km/h
16.12.2017 08:12 0.2 C 95 % 1008.9 mbar 0.00 mm 0.0 km/h W-SW 247 0 min 0.0 UV-I 0 W/m 0.2 C 0.0 km/h
16.12.2017 08:10 0.2 C 95 % 1008.8 mbar 0.00 mm 0.0 km/h W-SW 247 0 min 0.0 UV-I 0 W/m 0.2 C 0.0 km/h
16.12.2017 08:08 0.2 C 95 % 1008.8 mbar 0.00 mm 0.0 km/h W-SW 247 0 min 0.0 UV-I 0 W/m 0.2 C 0.0 km/h
16.12.2017 08:06 0.1 C 95 % 1008.8 mbar 0.00 mm 0.0 km/h W-SW 247 0 min 0.0 UV-I 0 W/m 0.1 C 0.0 km/h
16.12.2017 08:04 0.1 C 95 % 1008.7 mbar 0.00 mm 0.0 km/h W-SW 247 0 min 0.0 UV-I 0 W/m 0.1 C 0.0 km/h
16.12.2017 08:02 0.1 C 95 % 1008.7 mbar 0.00 mm 0.0 km/h W-SW 247 0 min 0.0 UV-I 0 W/m 0.1 C 0.0 km/h
16.12.2017 08:00 0.1 C 95 % 1008.7 mbar 0.00 mm 0.0 km/h W-SW 247 0 min 0.0 UV-I 0 W/m 0.1 C 0.0 km/h
16.12.2017 07:58 0.1 C 95 % 1008.7 mbar 0.00 mm 0.0 km/h W-SW 247 0 min 0.0 UV-I 0 W/m 0.1 C 0.0 km/h
16.12.2017 07:56 0.0 C 95 % 1008.6 mbar 0.00 mm 0.0 km/h W-SW 247 0 min 0.0 UV-I 0 W/m 0.0 C 0.0 km/h
16.12.2017 07:54 0.0 C 95 % 1008.6 mbar 0.00 mm 0.0 km/h W-SW 247 0 min 0.0 UV-I 0 W/m 0.0 C 0.0 km/h
16.12.2017 07:52 -0.1 C 95 % 1008.6 mbar 0.00 mm 0.0 km/h W-SW 247 0 min 0.0 UV-I 0 W/m -0.1 C 0.0 km/h
16.12.2017 07:50 -0.1 C 95 % 1008.5 mbar 0.00 mm 0.0 km/h W-SW 247 0 min 0.0 UV-I 0 W/m -0.1 C 0.0 km/h
16.12.2017 07:48 -0.1 C 95 % 1008.5 mbar 0.00 mm 0.0 km/h W-SW 247 0 min 0.0 UV-I 0 W/m -0.1 C 0.0 km/h
16.12.2017 07:46 -0.1 C 95 % 1008.5 mbar 0.00 mm 0.0 km/h W-SW 247 0 min 0.0 UV-I 0 W/m -0.1 C 0.0 km/h
16.12.2017 07:44 -0.1 C 95 % 1008.4 mbar 0.00 mm 0.0 km/h W-SW 247 0 min 0.0 UV-I 0 W/m -0.1 C 0.0 km/h
16.12.2017 07:42 -0.1 C 95 % 1008.3 mbar 0.00 mm 0.0 km/h W-SW 247 0 min 0.0 UV-I 0 W/m -0.1 C 0.0 km/h
16.12.2017 07:40 -0.1 C 95 % 1008.3 mbar 0.00 mm 0.0 km/h W-SW 247 0 min 0.0 UV-I 0 W/m -0.1 C 0.0 km/h
16.12.2017 07:38 -0.1 C 95 % 1008.2 mbar 0.00 mm 0.0 km/h W-SW 247 0 min 0.0 UV-I 0 W/m -0.1 C 0.0 km/h
16.12.2017 07:36 -0.1 C 95 % 1008.2 mbar 0.00 mm 0.0 km/h W-SW 247 0 min 0.0 UV-I 0 W/m -0.1 C 0.0 km/h
16.12.2017 07:34 -0.1 C 95 % 1008.2 mbar 0.00 mm 0.0 km/h W-SW 247 0 min 0.0 UV-I 0 W/m -0.1 C 0.0 km/h
16.12.2017 07:32 0.0 C 95 % 1008.2 mbar 0.00 mm 0.0 km/h W-SW 247 0 min 0.0 UV-I 0 W/m 0.0 C 0.0 km/h
16.12.2017 07:30 0.0 C 95 % 1008.1 mbar 0.00 mm 0.0 km/h W-SW 247 0 min 0.0 UV-I 0 W/m 0.0 C 0.0 km/h
16.12.2017 07:28 0.1 C 95 % 1008.0 mbar 0.00 mm 0.0 km/h W-SW 247 0 min 0.0 UV-I 0 W/m 0.1 C 0.0 km/h
16.12.2017 07:26 0.1 C 95 % 1008.0 mbar 0.00 mm 0.0 km/h W-SW 247 0 min 0.0 UV-I 0 W/m 0.1 C 0.0 km/h
16.12.2017 07:24 0.1 C 95 % 1008.0 mbar 0.00 mm 0.0 km/h W-SW 247 0 min 0.0 UV-I 0 W/m 0.1 C 0.0 km/h
16.12.2017 07:22 0.1 C 95 % 1008.0 mbar 0.00 mm 0.0 km/h W-SW 247 0 min 0.0 UV-I 0 W/m 0.1 C 0.0 km/h
16.12.2017 07:20 0.2 C 95 % 1007.9 mbar 0.00 mm 0.0 km/h W-SW 247 0 min 0.0 UV-I 0 W/m 0.2 C 0.0 km/h
16.12.2017 07:18 0.2 C 95 % 1007.9 mbar 0.00 mm 0.0 km/h W-SW 247 0 min 0.0 UV-I 0 W/m 0.2 C 0.0 km/h
16.12.2017 07:16 0.2 C 95 % 1007.8 mbar 0.00 mm 0.0 km/h W-SW 247 0 min 0.0 UV-I 0 W/m 0.2 C 0.0 km/h
16.12.2017 07:14 0.2 C 95 % 1007.8 mbar 0.00 mm 0.0 km/h W-SW 247 0 min 0.0 UV-I 0 W/m 0.2 C 0.0 km/h
16.12.2017 07:12 0.2 C 95 % 1007.7 mbar 0.00 mm 0.0 km/h W-SW 247 0 min 0.0 UV-I 0 W/m 0.2 C 0.0 km/h
16.12.2017 07:10 0.2 C 95 % 1007.7 mbar 0.00 mm 0.0 km/h W-SW 247 0 min 0.0 UV-I 0 W/m 0.2 C 0.0 km/h
16.12.2017 07:08 0.2 C 95 % 1007.7 mbar 0.00 mm 0.0 km/h W-SW 247 0 min 0.0 UV-I 0 W/m 0.2 C 0.0 km/h
16.12.2017 07:06 0.3 C 95 % 1007.6 mbar 0.00 mm 0.0 km/h W-SW 247 0 min 0.0 UV-I 0 W/m 0.3 C 0.0 km/h
16.12.2017 07:04 0.3 C 95 % 1007.6 mbar 0.00 mm 0.0 km/h W-SW 247 0 min 0.0 UV-I 0 W/m 0.3 C 0.0 km/h
16.12.2017 07:02 0.3 C 95 % 1007.6 mbar 0.00 mm 0.0 km/h W-SW 247 0 min 0.0 UV-I 0 W/m 0.3 C 0.0 km/h
16.12.2017 07:00 0.3 C 95 % 1007.5 mbar 0.00 mm 0.0 km/h W-SW 247 0 min 0.0 UV-I 0 W/m 0.3 C 0.0 km/h
16.12.2017 06:58 0.3 C 95 % 1007.5 mbar 0.00 mm 0.0 km/h W-SW 247 0 min 0.0 UV-I 0 W/m 0.3 C 0.0 km/h
16.12.2017 06:56 0.3 C 95 % 1007.5 mbar 0.00 mm 0.0 km/h W-SW 247 0 min 0.0 UV-I 0 W/m 0.3 C 0.0 km/h
16.12.2017 06:54 0.3 C 95 % 1007.4 mbar 0.00 mm 0.0 km/h W-SW 247 0 min 0.0 UV-I 0 W/m 0.3 C 0.0 km/h
16.12.2017 06:52 0.3 C 95 % 1007.4 mbar 0.00 mm 0.0 km/h W-SW 247 0 min 0.0 UV-I 0 W/m 0.3 C 0.0 km/h
16.12.2017 06:50 0.3 C 95 % 1007.3 mbar 0.00 mm 0.0 km/h W-SW 247 0 min 0.0 UV-I 0 W/m 0.3 C 0.0 km/h
16.12.2017 06:48 0.3 C 95 % 1007.4 mbar 0.00 mm 0.0 km/h W-SW 247 0 min 0.0 UV-I 0 W/m 0.3 C 0.0 km/h
16.12.2017 06:46 0.3 C 95 % 1007.4 mbar 0.00 mm 0.0 km/h W-SW 247 0 min 0.0 UV-I 0 W/m 0.3 C 0.0 km/h
16.12.2017 06:44 0.3 C 94 % 1007.3 mbar 0.00 mm 0.0 km/h W-SW 247 0 min 0.0 UV-I 0 W/m 0.3 C 0.0 km/h
16.12.2017 06:42 0.3 C 94 % 1007.3 mbar 0.00 mm 0.0 km/h W-SW 247 0 min 0.0 UV-I 0 W/m 0.3 C 0.0 km/h
16.12.2017 06:40 0.4 C 94 % 1007.3 mbar 0.00 mm 0.0 km/h W-SW 247 0 min 0.0 UV-I 0 W/m 0.4 C 0.0 km/h
16.12.2017 06:38 0.4 C 94 % 1007.2 mbar 0.00 mm 0.0 km/h W-SW 247 0 min 0.0 UV-I 0 W/m 0.4 C 0.0 km/h
16.12.2017 06:36 0.4 C 94 % 1007.2 mbar 0.00 mm 0.0 km/h W-SW 247 0 min 0.0 UV-I 0 W/m 0.4 C 0.0 km/h
16.12.2017 06:34 0.4 C 94 % 1007.2 mbar 0.00 mm 0.0 km/h W-SW 247 0 min 0.0 UV-I 0 W/m 0.4 C 0.0 km/h
16.12.2017 06:32 0.4 C 94 % 1007.2 mbar 0.00 mm 0.0 km/h W-SW 247 0 min 0.0 UV-I 0 W/m 0.4 C 0.0 km/h
16.12.2017 06:30 0.4 C 94 % 1007.2 mbar 0.00 mm 0.0 km/h W-SW 247 0 min 0.0 UV-I 0 W/m 0.4 C 0.0 km/h
16.12.2017 06:28 0.4 C 94 % 1007.1 mbar 0.00 mm 0.0 km/h W-SW 247 0 min 0.0 UV-I 0 W/m 0.4 C 0.0 km/h
16.12.2017 06:26 0.5 C 94 % 1007.1 mbar 0.00 mm 0.0 km/h W-SW 247 0 min 0.0 UV-I 0 W/m 0.5 C 0.0 km/h
16.12.2017 06:24 0.5 C 94 % 1007.1 mbar 0.00 mm 0.0 km/h W-SW 247 0 min 0.0 UV-I 0 W/m 0.5 C 0.0 km/h
16.12.2017 06:22 0.5 C 94 % 1007.1 mbar 0.00 mm 0.0 km/h W-SW 247 0 min 0.0 UV-I 0 W/m 0.5 C 0.0 km/h
16.12.2017 06:20 0.5 C 94 % 1007.0 mbar 0.00 mm 0.0 km/h W-SW 247 0 min 0.0 UV-I 0 W/m 0.5 C 0.0 km/h
16.12.2017 06:18 0.5 C 94 % 1006.9 mbar 0.00 mm 0.0 km/h W-SW 247 0 min 0.0 UV-I 0 W/m 0.5 C 0.0 km/h
16.12.2017 06:16 0.6 C 94 % 1006.9 mbar 0.00 mm 0.0 km/h W-SW 247 0 min 0.0 UV-I 0 W/m 0.6 C 0.0 km/h
16.12.2017 06:14 0.6 C 94 % 1006.9 mbar 0.00 mm 0.0 km/h W-SW 247 0 min 0.0 UV-I 0 W/m 0.6 C 0.0 km/h
16.12.2017 06:12 0.5 C 94 % 1006.9 mbar 0.00 mm 0.0 km/h W-SW 247 0 min 0.0 UV-I 0 W/m 0.5 C 0.0 km/h
16.12.2017 06:10 0.5 C 93 % 1006.9 mbar 0.00 mm 0.0 km/h W-SW 247 0 min 0.0 UV-I 0 W/m 0.5 C 0.0 km/h
16.12.2017 06:08 0.6 C 94 % 1006.8 mbar 0.00 mm 0.0 km/h W-SW 247 0 min 0.0 UV-I 0 W/m 0.6 C 0.0 km/h
16.12.2017 06:06 0.6 C 94 % 1006.8 mbar 0.00 mm 0.0 km/h W-SW 247 0 min 0.0 UV-I 0 W/m 0.6 C 0.0 km/h
16.12.2017 06:04 0.6 C 93 % 1006.7 mbar 0.00 mm 0.0 km/h W-SW 247 0 min 0.0 UV-I 0 W/m 0.6 C 0.0 km/h
16.12.2017 06:02 0.6 C 93 % 1006.6 mbar 0.00 mm 0.0 km/h W-SW 247 0 min 0.0 UV-I 0 W/m 0.6 C 0.0 km/h
16.12.2017 06:00 0.6 C 93 % 1006.6 mbar 0.00 mm 0.0 km/h W-SW 247 0 min 0.0 UV-I 0 W/m 0.6 C 0.0 km/h
16.12.2017 05:58 0.6 C 93 % 1006.6 mbar 0.00 mm 0.1 km/h W-SW 247 0 min 0.0 UV-I 0 W/m 0.6 C 1.6 km/h
16.12.2017 05:56 0.6 C 93 % 1006.6 mbar 0.00 mm 0.0 km/h W-SW 247 0 min 0.0 UV-I 0 W/m 0.6 C 0.0 km/h
16.12.2017 05:54 0.6 C 93 % 1006.6 mbar 0.00 mm 0.0 km/h W-SW 247 0 min 0.0 UV-I 0 W/m 0.6 C 0.0 km/h
16.12.2017 05:52 0.6 C 93 % 1006.6 mbar 0.00 mm 0.0 km/h W-SW 247 0 min 0.0 UV-I 0 W/m 0.6 C 0.0 km/h
16.12.2017 05:50 0.6 C 93 % 1006.6 mbar 0.00 mm 0.0 km/h W-SW 247 0 min 0.0 UV-I 0 W/m 0.6 C 0.0 km/h
16.12.2017 05:48 0.6 C 93 % 1006.6 mbar 0.00 mm 0.0 km/h W-SW 247 0 min 0.0 UV-I 0 W/m 0.6 C 0.0 km/h
16.12.2017 05:46 0.6 C 93 % 1006.6 mbar 0.00 mm 0.8 km/h W-SW 247 0 min 0.0 UV-I 0 W/m 0.6 C 3.2 km/h
16.12.2017 05:44 0.6 C 93 % 1006.5 mbar 0.00 mm 3.5 km/h W-SW 247 0 min 0.0 UV-I 0 W/m 0.6 C 4.8 km/h
16.12.2017 05:42 0.6 C 92 % 1006.4 mbar 0.00 mm 2.6 km/h SW 230 0 min 0.0 UV-I 0 W/m 0.6 C 4.8 km/h
16.12.2017 05:40 0.6 C 92 % 1006.4 mbar 0.00 mm 1.6 km/h S 185 0 min 0.0 UV-I 0 W/m 0.6 C 3.2 km/h
16.12.2017 05:38 0.6 C 92 % 1006.4 mbar 0.00 mm 2.5 km/h S 185 0 min 0.0 UV-I 0 W/m 0.6 C 4.8 km/h
16.12.2017 05:36 0.6 C 92 % 1006.3 mbar 0.00 mm 1.4 km/h S 185 0 min 0.0 UV-I 0 W/m 0.6 C 3.2 km/h
16.12.2017 05:34 0.6 C 92 % 1006.2 mbar 0.00 mm 2.6 km/h S 185 0 min 0.0 UV-I 0 W/m 0.6 C 3.2 km/h
16.12.2017 05:32 0.6 C 92 % 1006.2 mbar 0.00 mm 3.8 km/h S 185 0 min 0.0 UV-I 0 W/m 0.6 C 6.4 km/h
16.12.2017 05:30 0.6 C 92 % 1006.2 mbar 0.00 mm 5.4 km/h S 185 0 min 0.0 UV-I 0 W/m 0.6 C 6.4 km/h
16.12.2017 05:28 0.6 C 92 % 1006.1 mbar 0.00 mm 6.1 km/h S 185 0 min 0.0 UV-I 0 W/m 0.6 C 8.0 km/h
16.12.2017 05:26 0.7 C 92 % 1006.1 mbar 0.00 mm 4.4 km/h S 191 0 min 0.0 UV-I 0 W/m 0.7 C 6.4 km/h
16.12.2017 05:24 0.7 C 92 % 1006.0 mbar 0.00 mm 3.3 km/h W-SW 253 0 min 0.0 UV-I 0 W/m 0.7 C 4.8 km/h
16.12.2017 05:22 0.7 C 92 % 1006.0 mbar 0.00 mm 1.8 km/h W 272 0 min 0.0 UV-I 0 W/m 0.7 C 3.2 km/h
16.12.2017 05:20 0.7 C 92 % 1006.0 mbar 0.00 mm 2.3 km/h W 272 0 min 0.0 UV-I 0 W/m 0.7 C 3.2 km/h
16.12.2017 05:18 0.6 C 91 % 1006.0 mbar 0.00 mm 3.0 km/h W 273 0 min 0.0 UV-I 0 W/m 0.6 C 4.8 km/h
16.12.2017 05:16 0.7 C 91 % 1006.0 mbar 0.00 mm 2.6 km/h W 276 0 min 0.0 UV-I 0 W/m 0.7 C 4.8 km/h
16.12.2017 05:14 0.6 C 91 % 1005.9 mbar 0.00 mm 2.1 km/h W-NW 284 0 min 0.0 UV-I 0 W/m 0.6 C 4.8 km/h
16.12.2017 05:12 0.6 C 91 % 1005.8 mbar 0.00 mm 3.6 km/h W 269 0 min 0.0 UV-I 0 W/m 0.6 C 4.8 km/h
16.12.2017 05:10 0.6 C 91 % 1005.8 mbar 0.00 mm 1.3 km/h W 262 0 min 0.0 UV-I 0 W/m 0.6 C 4.8 km/h
16.12.2017 05:08 0.6 C 91 % 1005.8 mbar 0.00 mm 0.2 km/h SW 224 0 min 0.0 UV-I 0 W/m 0.6 C 1.6 km/h
16.12.2017 05:06 0.6 C 91 % 1005.8 mbar 0.00 mm 2.0 km/h SW 224 0 min 0.0 UV-I 0 W/m 0.6 C 3.2 km/h
16.12.2017 05:04 0.6 C 91 % 1005.8 mbar 0.00 mm 3.1 km/h SW 224 0 min 0.0 UV-I 0 W/m 0.6 C 4.8 km/h
16.12.2017 05:02 0.6 C 91 % 1005.8 mbar 0.00 mm 0.0 km/h W-NW 291 0 min 0.0 UV-I 0 W/m 0.6 C 0.0 km/h
16.12.2017 05:00 0.6 C 91 % 1005.7 mbar 0.00 mm 0.4 km/h W-NW 291 0 min 0.0 UV-I 0 W/m 0.6 C 1.6 km/h
16.12.2017 04:58 0.5 C 92 % 1005.7 mbar 0.00 mm 1.9 km/h W-NW 291 0 min 0.0 UV-I 0 W/m 0.5 C 3.2 km/h
16.12.2017 04:56 0.4 C 92 % 1005.6 mbar 0.00 mm 2.7 km/h W-NW 291 0 min 0.0 UV-I 0 W/m 0.4 C 3.2 km/h
16.12.2017 04:54 0.3 C 93 % 1005.6 mbar 0.00 mm 1.1 km/h W-NW 291 0 min 0.0 UV-I 0 W/m 0.3 C 3.2 km/h
16.12.2017 04:52 0.3 C 93 % 1005.6 mbar 0.00 mm 0.1 km/h W-NW 291 0 min 0.0 UV-I 0 W/m 0.3 C 1.6 km/h
16.12.2017 04:50 0.3 C 93 % 1005.6 mbar 0.00 mm 3.2 km/h W-NW 291 0 min 0.0 UV-I 0 W/m 0.3 C 4.8 km/h
16.12.2017 04:48 0.3 C 93 % 1005.5 mbar 0.00 mm 2.7 km/h W-NW 291 0 min 0.0 UV-I 0 W/m 0.3 C 3.2 km/h
16.12.2017 04:46 0.3 C 93 % 1005.6 mbar 0.00 mm 0.3 km/h W-NW 291 0 min 0.0 UV-I 0 W/m 0.3 C 3.2 km/h
16.12.2017 04:44 0.3 C 93 % 1005.5 mbar 0.00 mm 0.1 km/h W-NW 291 0 min 0.0 UV-I 0 W/m 0.3 C 1.6 km/h
16.12.2017 04:42 0.2 C 93 % 1005.5 mbar 0.00 mm 0.7 km/h W-NW 291 0 min 0.0 UV-I 0 W/m 0.2 C 3.2 km/h
16.12.2017 04:40 0.2 C 93 % 1005.4 mbar 0.00 mm 3.6 km/h W-NW 287 0 min 0.0 UV-I 0 W/m 0.2 C 4.8 km/h
16.12.2017 04:38 0.1 C 93 % 1005.4 mbar 0.00 mm 5.6 km/h W 274 0 min 0.0 UV-I 0 W/m 0.1 C 6.4 km/h
16.12.2017 04:36 0.1 C 93 % 1005.3 mbar 0.00 mm 4.7 km/h W 265 0 min 0.0 UV-I 0 W/m 0.1 C 6.4 km/h
16.12.2017 04:34 0.1 C 93 % 1005.4 mbar 0.00 mm 3.8 km/h W-SW 239 0 min 0.0 UV-I 0 W/m 0.1 C 4.8 km/h
16.12.2017 04:32 0.1 C 93 % 1005.3 mbar 0.00 mm 2.6 km/h W-SW 239 0 min 0.0 UV-I 0 W/m 0.1 C 4.8 km/h
16.12.2017 04:30 0.1 C 93 % 1005.3 mbar 0.00 mm 0.4 km/h S-SO 160 0 min 0.0 UV-I 0 W/m 0.1 C 3.2 km/h
16.12.2017 04:28 0.1 C 93 % 1005.2 mbar 0.00 mm 2.0 km/h S-SO 160 0 min 0.0 UV-I 0 W/m 0.1 C 3.2 km/h
16.12.2017 04:26 0.1 C 93 % 1005.1 mbar 0.00 mm 2.8 km/h S-SO 160 0 min 0.0 UV-I 0 W/m 0.1 C 3.2 km/h
16.12.2017 04:24 0.1 C 93 % 1005.1 mbar 0.00 mm 0.1 km/h S-SO 160 0 min 0.0 UV-I 0 W/m 0.1 C 1.6 km/h
16.12.2017 04:22 0.0 C 93 % 1005.1 mbar 0.00 mm 3.7 km/h S-SO 164 0 min 0.0 UV-I 0 W/m 0.0 C 6.4 km/h
16.12.2017 04:20 0.1 C 93 % 1005.1 mbar 0.00 mm 3.0 km/h S-SO 165 0 min 0.0 UV-I 0 W/m 0.1 C 6.4 km/h
16.12.2017 04:18 0.0 C 93 % 1005.0 mbar 0.00 mm 0.2 km/h W-SW 238 0 min 0.0 UV-I 0 W/m 0.0 C 1.6 km/h
16.12.2017 04:16 0.0 C 93 % 1004.9 mbar 0.00 mm 1.4 km/h W-SW 238 0 min 0.0 UV-I 0 W/m 0.0 C 3.2 km/h
16.12.2017 04:14 0.0 C 93 % 1004.9 mbar 0.00 mm 3.4 km/h W-SW 238 0 min 0.0 UV-I 0 W/m 0.0 C 4.8 km/h
16.12.2017 04:12 0.0 C 93 % 1004.9 mbar 0.00 mm 0.7 km/h W-SW 238 0 min 0.0 UV-I 0 W/m 0.0 C 3.2 km/h
16.12.2017 04:10 -0.1 C 93 % 1004.9 mbar 0.00 mm 2.8 km/h W-SW 238 0 min 0.0 UV-I 0 W/m -0.1 C 4.8 km/h
16.12.2017 04:08 -0.1 C 93 % 1004.8 mbar 0.00 mm 0.0 km/h SW 231 0 min 0.0 UV-I 0 W/m -0.1 C 0.0 km/h
16.12.2017 04:06 -0.1 C 93 % 1004.8 mbar 0.00 mm 0.0 km/h SW 231 0 min 0.0 UV-I 0 W/m -0.1 C 0.0 km/h
16.12.2017 04:04 -0.1 C 93 % 1004.8 mbar 0.00 mm 0.6 km/h SW 231 0 min 0.0 UV-I 0 W/m -0.1 C 3.2 km/h
16.12.2017 04:02 -0.1 C 93 % 1004.8 mbar 0.00 mm 2.4 km/h SW 231 0 min 0.0 UV-I 0 W/m -0.1 C 4.8 km/h
16.12.2017 04:00 -0.1 C 93 % 1004.8 mbar 0.00 mm 0.7 km/h SW 224 0 min 0.0 UV-I 0 W/m -0.1 C 3.2 km/h
_ Min-Zeit 04:00 05:00 04:00 - 04:06 - - - - - 16:24 04:06
Minimum _ -0.1 C 91 % 1004.8 mbar - 0.0 km/h - - - - - -0.2 C 0.0 km/h
_ Max-Zeit 15:48 08:22 02:50 10:54 16:24 - - 04:00 04:00 11:34 14:14 16:24
Maximum _ 2.3 C 96 % 1021.8 mbar 0.20 mm 8.9 km/h
W
- - 0 min 0.0 UV-I 107 W/m 2.2 C 16.1 km/h
W
Durchschnitt _ 1.0 C 95 % 1014.0 mbar #1.60 mm 1.0 km/h SW - #0 min. 0.0 UV-I 0 W/m 1.0 C 2.1 km/h